<?xml version="1.0" encoding="UTF-8" standalone="no" ?>
<gpx xmlns="http://www.topografix.com/GPX/1/1" xmlns:xsi="http://www.w3.org/2001/XMLSchema-instance" xsi:schemaLocation="http://www.topografix.com/GPX/1/1 http://www.topografix.com/GPX/1/1/gpx.xsd" version="1.1" creator="VisuGPX - https://www.visugpx.com">
  <metadata>
    <name>Activité matinale</name>
  </metadata>
  <trk>
    <name><![CDATA[Activité matinale]]></name>
    <trkseg>
      <trkpt lat="43.45593" lon="6.82681">
        <ele>61</ele>
        <time>2021-03-19T08:17:05Z</time>
      </trkpt>
      <trkpt lat="43.45584" lon="6.82667">
        <ele>61.4</ele>
        <time>2021-03-19T08:17:09Z</time>
      </trkpt>
      <trkpt lat="43.45592" lon="6.82676">
        <ele>61.4</ele>
        <time>2021-03-19T08:17:10Z</time>
      </trkpt>
      <trkpt lat="43.45596" lon="6.82686">
        <ele>61.4</ele>
        <time>2021-03-19T08:17:11Z</time>
      </trkpt>
      <trkpt lat="43.45599" lon="6.82695">
        <ele>61.6</ele>
        <time>2021-03-19T08:17:12Z</time>
      </trkpt>
      <trkpt lat="43.45589" lon="6.8265">
        <ele>61.4</ele>
        <time>2021-03-19T08:17:23Z</time>
      </trkpt>
      <trkpt lat="43.45591" lon="6.82646">
        <ele>61.4</ele>
        <time>2021-03-19T08:17:24Z</time>
      </trkpt>
      <trkpt lat="43.45594" lon="6.82644">
        <ele>61.4</ele>
        <time>2021-03-19T08:17:25Z</time>
      </trkpt>
      <trkpt lat="43.45592" lon="6.82637">
        <ele>61.4</ele>
        <time>2021-03-19T08:17:28Z</time>
      </trkpt>
      <trkpt lat="43.45593" lon="6.82636">
        <ele>61.4</ele>
        <time>2021-03-19T08:17:29Z</time>
      </trkpt>
      <trkpt lat="43.45594" lon="6.82634">
        <ele>61.4</ele>
        <time>2021-03-19T08:17:30Z</time>
      </trkpt>
      <trkpt lat="43.45595" lon="6.82633">
        <ele>61.4</ele>
        <time>2021-03-19T08:17:31Z</time>
      </trkpt>
      <trkpt lat="43.45595" lon="6.82632">
        <ele>61.4</ele>
        <time>2021-03-19T08:17:32Z</time>
      </trkpt>
      <trkpt lat="43.45596" lon="6.82631">
        <ele>61.2</ele>
        <time>2021-03-19T08:17:33Z</time>
      </trkpt>
      <trkpt lat="43.45597" lon="6.8263">
        <ele>61.2</ele>
        <time>2021-03-19T08:17:34Z</time>
      </trkpt>
      <trkpt lat="43.45598" lon="6.82629">
        <ele>61.4</ele>
        <time>2021-03-19T08:17:35Z</time>
      </trkpt>
      <trkpt lat="43.45623" lon="6.82567">
        <ele>62.4</ele>
        <time>2021-03-19T08:18:16Z</time>
      </trkpt>
      <trkpt lat="43.4565" lon="6.82503">
        <ele>64.6</ele>
        <time>2021-03-19T08:18:54Z</time>
      </trkpt>
      <trkpt lat="43.45675" lon="6.82449">
        <ele>67.6</ele>
        <time>2021-03-19T08:19:30Z</time>
      </trkpt>
      <trkpt lat="43.45709" lon="6.82414">
        <ele>69.4</ele>
        <time>2021-03-19T08:19:59Z</time>
      </trkpt>
      <trkpt lat="43.4571" lon="6.82413">
        <ele>69.6</ele>
        <time>2021-03-19T08:20:00Z</time>
      </trkpt>
      <trkpt lat="43.45711" lon="6.82411">
        <ele>69.6</ele>
        <time>2021-03-19T08:20:01Z</time>
      </trkpt>
      <trkpt lat="43.45712" lon="6.8241">
        <ele>69.6</ele>
        <time>2021-03-19T08:20:02Z</time>
      </trkpt>
      <trkpt lat="43.45712" lon="6.82409">
        <ele>69.4</ele>
        <time>2021-03-19T08:20:03Z</time>
      </trkpt>
      <trkpt lat="43.45737" lon="6.82357">
        <ele>72.6</ele>
        <time>2021-03-19T08:20:36Z</time>
      </trkpt>
      <trkpt lat="43.45759" lon="6.82345">
        <ele>75.6</ele>
        <time>2021-03-19T08:20:54Z</time>
      </trkpt>
      <trkpt lat="43.4578" lon="6.82342">
        <ele>78.8</ele>
        <time>2021-03-19T08:21:09Z</time>
      </trkpt>
      <trkpt lat="43.45789" lon="6.82337">
        <ele>80.8</ele>
        <time>2021-03-19T08:21:18Z</time>
      </trkpt>
      <trkpt lat="43.45791" lon="6.82336">
        <ele>81</ele>
        <time>2021-03-19T08:21:20Z</time>
      </trkpt>
      <trkpt lat="43.45793" lon="6.82336">
        <ele>81.2</ele>
        <time>2021-03-19T08:21:21Z</time>
      </trkpt>
      <trkpt lat="43.45794" lon="6.82335">
        <ele>81.4</ele>
        <time>2021-03-19T08:21:22Z</time>
      </trkpt>
      <trkpt lat="43.45796" lon="6.82335">
        <ele>81.8</ele>
        <time>2021-03-19T08:21:23Z</time>
      </trkpt>
      <trkpt lat="43.45797" lon="6.82334">
        <ele>82</ele>
        <time>2021-03-19T08:21:24Z</time>
      </trkpt>
      <trkpt lat="43.45798" lon="6.82333">
        <ele>82.2</ele>
        <time>2021-03-19T08:21:25Z</time>
      </trkpt>
      <trkpt lat="43.45799" lon="6.82333">
        <ele>82.4</ele>
        <time>2021-03-19T08:21:26Z</time>
      </trkpt>
      <trkpt lat="43.458" lon="6.82332">
        <ele>82.4</ele>
        <time>2021-03-19T08:21:27Z</time>
      </trkpt>
      <trkpt lat="43.45801" lon="6.82332">
        <ele>82.8</ele>
        <time>2021-03-19T08:21:28Z</time>
      </trkpt>
      <trkpt lat="43.45802" lon="6.82332">
        <ele>83</ele>
        <time>2021-03-19T08:21:29Z</time>
      </trkpt>
      <trkpt lat="43.45803" lon="6.82332">
        <ele>83.2</ele>
        <time>2021-03-19T08:21:30Z</time>
      </trkpt>
      <trkpt lat="43.45804" lon="6.82332">
        <ele>83.2</ele>
        <time>2021-03-19T08:21:31Z</time>
      </trkpt>
      <trkpt lat="43.45805" lon="6.82332">
        <ele>83.4</ele>
        <time>2021-03-19T08:21:32Z</time>
      </trkpt>
      <trkpt lat="43.45815" lon="6.82327">
        <ele>84.8</ele>
        <time>2021-03-19T08:21:40Z</time>
      </trkpt>
      <trkpt lat="43.45816" lon="6.82327">
        <ele>84.8</ele>
        <time>2021-03-19T08:21:41Z</time>
      </trkpt>
      <trkpt lat="43.45828" lon="6.82325">
        <ele>86</ele>
        <time>2021-03-19T08:21:50Z</time>
      </trkpt>
      <trkpt lat="43.4583" lon="6.82324">
        <ele>86.2</ele>
        <time>2021-03-19T08:21:51Z</time>
      </trkpt>
      <trkpt lat="43.45831" lon="6.82323">
        <ele>86.4</ele>
        <time>2021-03-19T08:21:52Z</time>
      </trkpt>
      <trkpt lat="43.45832" lon="6.82322">
        <ele>86.8</ele>
        <time>2021-03-19T08:21:53Z</time>
      </trkpt>
      <trkpt lat="43.45833" lon="6.82321">
        <ele>87</ele>
        <time>2021-03-19T08:21:54Z</time>
      </trkpt>
      <trkpt lat="43.45834" lon="6.82322">
        <ele>87.2</ele>
        <time>2021-03-19T08:21:55Z</time>
      </trkpt>
      <trkpt lat="43.45836" lon="6.82321">
        <ele>87.2</ele>
        <time>2021-03-19T08:21:56Z</time>
      </trkpt>
      <trkpt lat="43.45855" lon="6.82309">
        <ele>87.2</ele>
        <time>2021-03-19T08:22:12Z</time>
      </trkpt>
      <trkpt lat="43.45858" lon="6.82309">
        <ele>87.2</ele>
        <time>2021-03-19T08:22:14Z</time>
      </trkpt>
      <trkpt lat="43.45859" lon="6.82308">
        <ele>87.2</ele>
        <time>2021-03-19T08:22:15Z</time>
      </trkpt>
      <trkpt lat="43.45861" lon="6.82308">
        <ele>87.2</ele>
        <time>2021-03-19T08:22:16Z</time>
      </trkpt>
      <trkpt lat="43.45862" lon="6.82307">
        <ele>87.2</ele>
        <time>2021-03-19T08:22:17Z</time>
      </trkpt>
      <trkpt lat="43.45863" lon="6.82307">
        <ele>87.4</ele>
        <time>2021-03-19T08:22:18Z</time>
      </trkpt>
      <trkpt lat="43.45864" lon="6.82307">
        <ele>87.4</ele>
        <time>2021-03-19T08:22:19Z</time>
      </trkpt>
      <trkpt lat="43.45898" lon="6.82264">
        <ele>88.8</ele>
        <time>2021-03-19T08:22:55Z</time>
      </trkpt>
      <trkpt lat="43.45913" lon="6.82238">
        <ele>91.8</ele>
        <time>2021-03-19T08:23:11Z</time>
      </trkpt>
      <trkpt lat="43.45939" lon="6.82188">
        <ele>94</ele>
        <time>2021-03-19T08:23:44Z</time>
      </trkpt>
      <trkpt lat="43.45965" lon="6.82151">
        <ele>97</ele>
        <time>2021-03-19T08:24:12Z</time>
      </trkpt>
      <trkpt lat="43.46009" lon="6.82122">
        <ele>97</ele>
        <time>2021-03-19T08:24:47Z</time>
      </trkpt>
      <trkpt lat="43.46018" lon="6.82113">
        <ele>97</ele>
        <time>2021-03-19T08:24:54Z</time>
      </trkpt>
      <trkpt lat="43.46062" lon="6.82097">
        <ele>98.8</ele>
        <time>2021-03-19T08:25:30Z</time>
      </trkpt>
      <trkpt lat="43.46109" lon="6.82059">
        <ele>101.6</ele>
        <time>2021-03-19T08:26:08Z</time>
      </trkpt>
      <trkpt lat="43.46111" lon="6.82058">
        <ele>102</ele>
        <time>2021-03-19T08:26:09Z</time>
      </trkpt>
      <trkpt lat="43.46123" lon="6.82046">
        <ele>103.8</ele>
        <time>2021-03-19T08:26:19Z</time>
      </trkpt>
      <trkpt lat="43.46129" lon="6.8204">
        <ele>105.2</ele>
        <time>2021-03-19T08:26:25Z</time>
      </trkpt>
      <trkpt lat="43.4613" lon="6.8204">
        <ele>105.4</ele>
        <time>2021-03-19T08:26:26Z</time>
      </trkpt>
      <trkpt lat="43.46131" lon="6.8204">
        <ele>105.6</ele>
        <time>2021-03-19T08:26:27Z</time>
      </trkpt>
      <trkpt lat="43.46132" lon="6.82038">
        <ele>105.8</ele>
        <time>2021-03-19T08:26:28Z</time>
      </trkpt>
      <trkpt lat="43.46133" lon="6.82037">
        <ele>106.2</ele>
        <time>2021-03-19T08:26:29Z</time>
      </trkpt>
      <trkpt lat="43.46141" lon="6.82018">
        <ele>109.2</ele>
        <time>2021-03-19T08:26:42Z</time>
      </trkpt>
      <trkpt lat="43.46143" lon="6.82016">
        <ele>109.6</ele>
        <time>2021-03-19T08:26:44Z</time>
      </trkpt>
      <trkpt lat="43.46144" lon="6.82015">
        <ele>109.6</ele>
        <time>2021-03-19T08:26:45Z</time>
      </trkpt>
      <trkpt lat="43.46145" lon="6.82013">
        <ele>109.8</ele>
        <time>2021-03-19T08:26:46Z</time>
      </trkpt>
      <trkpt lat="43.46186" lon="6.81978">
        <ele>112.8</ele>
        <time>2021-03-19T08:27:21Z</time>
      </trkpt>
      <trkpt lat="43.4622" lon="6.81968">
        <ele>115.8</ele>
        <time>2021-03-19T08:27:44Z</time>
      </trkpt>
      <trkpt lat="43.4624" lon="6.81958">
        <ele>119</ele>
        <time>2021-03-19T08:28:00Z</time>
      </trkpt>
      <trkpt lat="43.46257" lon="6.81955">
        <ele>121</ele>
        <time>2021-03-19T08:28:12Z</time>
      </trkpt>
      <trkpt lat="43.4626" lon="6.81955">
        <ele>121.4</ele>
        <time>2021-03-19T08:28:14Z</time>
      </trkpt>
      <trkpt lat="43.46271" lon="6.81951">
        <ele>122.6</ele>
        <time>2021-03-19T08:28:22Z</time>
      </trkpt>
      <trkpt lat="43.46273" lon="6.8195">
        <ele>122.6</ele>
        <time>2021-03-19T08:28:23Z</time>
      </trkpt>
      <trkpt lat="43.46274" lon="6.8195">
        <ele>122.8</ele>
        <time>2021-03-19T08:28:24Z</time>
      </trkpt>
      <trkpt lat="43.46276" lon="6.81949">
        <ele>122.8</ele>
        <time>2021-03-19T08:28:25Z</time>
      </trkpt>
      <trkpt lat="43.46277" lon="6.81949">
        <ele>123</ele>
        <time>2021-03-19T08:28:26Z</time>
      </trkpt>
      <trkpt lat="43.46279" lon="6.81948">
        <ele>123</ele>
        <time>2021-03-19T08:28:27Z</time>
      </trkpt>
      <trkpt lat="43.46288" lon="6.81946">
        <ele>124</ele>
        <time>2021-03-19T08:28:34Z</time>
      </trkpt>
      <trkpt lat="43.46301" lon="6.81943">
        <ele>125.4</ele>
        <time>2021-03-19T08:28:43Z</time>
      </trkpt>
      <trkpt lat="43.46303" lon="6.81943">
        <ele>125.4</ele>
        <time>2021-03-19T08:28:44Z</time>
      </trkpt>
      <trkpt lat="43.4635" lon="6.81925">
        <ele>127.6</ele>
        <time>2021-03-19T08:29:17Z</time>
      </trkpt>
      <trkpt lat="43.46351" lon="6.81924">
        <ele>127.6</ele>
        <time>2021-03-19T08:29:18Z</time>
      </trkpt>
      <trkpt lat="43.46366" lon="6.81916">
        <ele>127.8</ele>
        <time>2021-03-19T08:29:30Z</time>
      </trkpt>
      <trkpt lat="43.46375" lon="6.81914">
        <ele>126.8</ele>
        <time>2021-03-19T08:29:37Z</time>
      </trkpt>
      <trkpt lat="43.46377" lon="6.81913">
        <ele>126.6</ele>
        <time>2021-03-19T08:29:38Z</time>
      </trkpt>
      <trkpt lat="43.46408" lon="6.8191">
        <ele>123.4</ele>
        <time>2021-03-19T08:29:59Z</time>
      </trkpt>
      <trkpt lat="43.46437" lon="6.81912">
        <ele>120.2</ele>
        <time>2021-03-19T08:30:18Z</time>
      </trkpt>
      <trkpt lat="43.4644" lon="6.81911">
        <ele>120.4</ele>
        <time>2021-03-19T08:30:27Z</time>
      </trkpt>
      <trkpt lat="43.46452" lon="6.81897">
        <ele>120.2</ele>
        <time>2021-03-19T08:32:51Z</time>
      </trkpt>
      <trkpt lat="43.46454" lon="6.81897">
        <ele>120.2</ele>
        <time>2021-03-19T08:32:52Z</time>
      </trkpt>
      <trkpt lat="43.46503" lon="6.81881">
        <ele>119.2</ele>
        <time>2021-03-19T08:33:27Z</time>
      </trkpt>
      <trkpt lat="43.46548" lon="6.8186">
        <ele>118.2</ele>
        <time>2021-03-19T08:34:00Z</time>
      </trkpt>
      <trkpt lat="43.46589" lon="6.81824">
        <ele>116.4</ele>
        <time>2021-03-19T08:34:31Z</time>
      </trkpt>
      <trkpt lat="43.46642" lon="6.81835">
        <ele>115.6</ele>
        <time>2021-03-19T08:35:05Z</time>
      </trkpt>
      <trkpt lat="43.46651" lon="6.81837">
        <ele>115.4</ele>
        <time>2021-03-19T08:35:10Z</time>
      </trkpt>
      <trkpt lat="43.46696" lon="6.8188">
        <ele>114.4</ele>
        <time>2021-03-19T08:35:42Z</time>
      </trkpt>
      <trkpt lat="43.46717" lon="6.81935">
        <ele>113.8</ele>
        <time>2021-03-19T08:36:13Z</time>
      </trkpt>
      <trkpt lat="43.46719" lon="6.81936">
        <ele>113.6</ele>
        <time>2021-03-19T08:36:14Z</time>
      </trkpt>
      <trkpt lat="43.46721" lon="6.81937">
        <ele>113.4</ele>
        <time>2021-03-19T08:36:15Z</time>
      </trkpt>
      <trkpt lat="43.46764" lon="6.8197">
        <ele>110.6</ele>
        <time>2021-03-19T08:36:48Z</time>
      </trkpt>
      <trkpt lat="43.46808" lon="6.81975">
        <ele>108.8</ele>
        <time>2021-03-19T08:37:19Z</time>
      </trkpt>
      <trkpt lat="43.46811" lon="6.81987">
        <ele>106.8</ele>
        <time>2021-03-19T08:37:25Z</time>
      </trkpt>
      <trkpt lat="43.4681" lon="6.82005">
        <ele>104.8</ele>
        <time>2021-03-19T08:37:35Z</time>
      </trkpt>
      <trkpt lat="43.4681" lon="6.82006">
        <ele>104.8</ele>
        <time>2021-03-19T08:37:36Z</time>
      </trkpt>
      <trkpt lat="43.4683" lon="6.82045">
        <ele>101.8</ele>
        <time>2021-03-19T08:37:59Z</time>
      </trkpt>
      <trkpt lat="43.46864" lon="6.82086">
        <ele>100.6</ele>
        <time>2021-03-19T08:38:30Z</time>
      </trkpt>
      <trkpt lat="43.4687" lon="6.82088">
        <ele>100.6</ele>
        <time>2021-03-19T08:38:34Z</time>
      </trkpt>
      <trkpt lat="43.46906" lon="6.82056">
        <ele>101</ele>
        <time>2021-03-19T08:39:04Z</time>
      </trkpt>
      <trkpt lat="43.46908" lon="6.82053">
        <ele>101.4</ele>
        <time>2021-03-19T08:39:06Z</time>
      </trkpt>
      <trkpt lat="43.46909" lon="6.8205">
        <ele>101.4</ele>
        <time>2021-03-19T08:39:07Z</time>
      </trkpt>
      <trkpt lat="43.4691" lon="6.82048">
        <ele>101.4</ele>
        <time>2021-03-19T08:39:08Z</time>
      </trkpt>
      <trkpt lat="43.46911" lon="6.82047">
        <ele>101.4</ele>
        <time>2021-03-19T08:39:09Z</time>
      </trkpt>
      <trkpt lat="43.46911" lon="6.82045">
        <ele>101.2</ele>
        <time>2021-03-19T08:39:10Z</time>
      </trkpt>
      <trkpt lat="43.46959" lon="6.82026">
        <ele>101.4</ele>
        <time>2021-03-19T08:39:44Z</time>
      </trkpt>
      <trkpt lat="43.47003" lon="6.82061">
        <ele>101.6</ele>
        <time>2021-03-19T08:40:15Z</time>
      </trkpt>
      <trkpt lat="43.47025" lon="6.82105">
        <ele>101.8</ele>
        <time>2021-03-19T08:40:39Z</time>
      </trkpt>
      <trkpt lat="43.4706" lon="6.82154">
        <ele>102.4</ele>
        <time>2021-03-19T08:41:08Z</time>
      </trkpt>
      <trkpt lat="43.47073" lon="6.82194">
        <ele>102.6</ele>
        <time>2021-03-19T08:41:28Z</time>
      </trkpt>
      <trkpt lat="43.47074" lon="6.82195">
        <ele>102.6</ele>
        <time>2021-03-19T08:41:29Z</time>
      </trkpt>
      <trkpt lat="43.47075" lon="6.82197">
        <ele>102.8</ele>
        <time>2021-03-19T08:41:30Z</time>
      </trkpt>
      <trkpt lat="43.47076" lon="6.82198">
        <ele>102.4</ele>
        <time>2021-03-19T08:41:31Z</time>
      </trkpt>
      <trkpt lat="43.47077" lon="6.822">
        <ele>102.2</ele>
        <time>2021-03-19T08:41:32Z</time>
      </trkpt>
      <trkpt lat="43.47078" lon="6.82203">
        <ele>102</ele>
        <time>2021-03-19T08:41:33Z</time>
      </trkpt>
      <trkpt lat="43.47079" lon="6.82205">
        <ele>101.8</ele>
        <time>2021-03-19T08:41:34Z</time>
      </trkpt>
      <trkpt lat="43.4708" lon="6.82207">
        <ele>101.6</ele>
        <time>2021-03-19T08:41:35Z</time>
      </trkpt>
      <trkpt lat="43.47113" lon="6.82201">
        <ele>99.8</ele>
        <time>2021-03-19T08:42:07Z</time>
      </trkpt>
      <trkpt lat="43.47102" lon="6.82161">
        <ele>96.8</ele>
        <time>2021-03-19T08:42:29Z</time>
      </trkpt>
      <trkpt lat="43.47092" lon="6.82102">
        <ele>93.6</ele>
        <time>2021-03-19T08:42:56Z</time>
      </trkpt>
      <trkpt lat="43.47077" lon="6.82047">
        <ele>90.4</ele>
        <time>2021-03-19T08:43:23Z</time>
      </trkpt>
      <trkpt lat="43.47045" lon="6.81992">
        <ele>88</ele>
        <time>2021-03-19T08:43:56Z</time>
      </trkpt>
      <trkpt lat="43.47039" lon="6.81979">
        <ele>87.2</ele>
        <time>2021-03-19T08:44:03Z</time>
      </trkpt>
      <trkpt lat="43.47038" lon="6.81978">
        <ele>87.2</ele>
        <time>2021-03-19T08:44:04Z</time>
      </trkpt>
      <trkpt lat="43.47038" lon="6.81976">
        <ele>87.4</ele>
        <time>2021-03-19T08:44:05Z</time>
      </trkpt>
      <trkpt lat="43.47037" lon="6.81974">
        <ele>87.4</ele>
        <time>2021-03-19T08:44:06Z</time>
      </trkpt>
      <trkpt lat="43.47037" lon="6.81972">
        <ele>87.4</ele>
        <time>2021-03-19T08:44:07Z</time>
      </trkpt>
      <trkpt lat="43.47036" lon="6.81969">
        <ele>87.4</ele>
        <time>2021-03-19T08:44:08Z</time>
      </trkpt>
      <trkpt lat="43.47036" lon="6.81967">
        <ele>87.4</ele>
        <time>2021-03-19T08:44:09Z</time>
      </trkpt>
      <trkpt lat="43.47005" lon="6.81909">
        <ele>84.2</ele>
        <time>2021-03-19T08:44:41Z</time>
      </trkpt>
      <trkpt lat="43.46995" lon="6.81893">
        <ele>83.6</ele>
        <time>2021-03-19T08:44:50Z</time>
      </trkpt>
      <trkpt lat="43.46994" lon="6.81891">
        <ele>83.6</ele>
        <time>2021-03-19T08:44:51Z</time>
      </trkpt>
      <trkpt lat="43.46993" lon="6.8189">
        <ele>83.6</ele>
        <time>2021-03-19T08:44:52Z</time>
      </trkpt>
      <trkpt lat="43.46954" lon="6.81848">
        <ele>80.6</ele>
        <time>2021-03-19T08:45:22Z</time>
      </trkpt>
      <trkpt lat="43.46925" lon="6.81788">
        <ele>78.6</ele>
        <time>2021-03-19T08:45:56Z</time>
      </trkpt>
      <trkpt lat="43.46913" lon="6.81758">
        <ele>77.8</ele>
        <time>2021-03-19T08:46:11Z</time>
      </trkpt>
      <trkpt lat="43.46912" lon="6.81757">
        <ele>77.6</ele>
        <time>2021-03-19T08:46:12Z</time>
      </trkpt>
      <trkpt lat="43.46911" lon="6.81755">
        <ele>77.6</ele>
        <time>2021-03-19T08:46:13Z</time>
      </trkpt>
      <trkpt lat="43.46911" lon="6.81754">
        <ele>77.4</ele>
        <time>2021-03-19T08:46:14Z</time>
      </trkpt>
      <trkpt lat="43.4691" lon="6.81752">
        <ele>77.4</ele>
        <time>2021-03-19T08:46:15Z</time>
      </trkpt>
      <trkpt lat="43.46883" lon="6.81683">
        <ele>75</ele>
        <time>2021-03-19T08:46:48Z</time>
      </trkpt>
      <trkpt lat="43.46882" lon="6.81674">
        <ele>75</ele>
        <time>2021-03-19T08:46:52Z</time>
      </trkpt>
      <trkpt lat="43.46882" lon="6.81671">
        <ele>74.8</ele>
        <time>2021-03-19T08:46:53Z</time>
      </trkpt>
      <trkpt lat="43.46875" lon="6.816">
        <ele>73.8</ele>
        <time>2021-03-19T08:47:22Z</time>
      </trkpt>
      <trkpt lat="43.46891" lon="6.81553">
        <ele>75.6</ele>
        <time>2021-03-19T08:47:46Z</time>
      </trkpt>
      <trkpt lat="43.46897" lon="6.81537">
        <ele>76</ele>
        <time>2021-03-19T08:47:54Z</time>
      </trkpt>
      <trkpt lat="43.46906" lon="6.8147">
        <ele>79</ele>
        <time>2021-03-19T08:48:23Z</time>
      </trkpt>
      <trkpt lat="43.46911" lon="6.81403">
        <ele>81.8</ele>
        <time>2021-03-19T08:48:54Z</time>
      </trkpt>
      <trkpt lat="43.46913" lon="6.81336">
        <ele>79</ele>
        <time>2021-03-19T08:49:23Z</time>
      </trkpt>
      <trkpt lat="43.46899" lon="6.81282">
        <ele>76</ele>
        <time>2021-03-19T08:49:48Z</time>
      </trkpt>
      <trkpt lat="43.46897" lon="6.81224">
        <ele>73</ele>
        <time>2021-03-19T08:50:12Z</time>
      </trkpt>
      <trkpt lat="43.46894" lon="6.81169">
        <ele>70</ele>
        <time>2021-03-19T08:50:35Z</time>
      </trkpt>
      <trkpt lat="43.46884" lon="6.81104">
        <ele>67.6</ele>
        <time>2021-03-19T08:51:03Z</time>
      </trkpt>
      <trkpt lat="43.46871" lon="6.8104">
        <ele>66.6</ele>
        <time>2021-03-19T08:51:31Z</time>
      </trkpt>
      <trkpt lat="43.46888" lon="6.80972">
        <ele>65.8</ele>
        <time>2021-03-19T08:51:59Z</time>
      </trkpt>
      <trkpt lat="43.46887" lon="6.80965">
        <ele>65.8</ele>
        <time>2021-03-19T08:52:03Z</time>
      </trkpt>
      <trkpt lat="43.46887" lon="6.80962">
        <ele>65.8</ele>
        <time>2021-03-19T08:52:04Z</time>
      </trkpt>
      <trkpt lat="43.46886" lon="6.8096">
        <ele>65.8</ele>
        <time>2021-03-19T08:52:05Z</time>
      </trkpt>
      <trkpt lat="43.46886" lon="6.80958">
        <ele>66</ele>
        <time>2021-03-19T08:52:06Z</time>
      </trkpt>
      <trkpt lat="43.46885" lon="6.80955">
        <ele>66.2</ele>
        <time>2021-03-19T08:52:07Z</time>
      </trkpt>
      <trkpt lat="43.46887" lon="6.80943">
        <ele>66</ele>
        <time>2021-03-19T08:52:12Z</time>
      </trkpt>
      <trkpt lat="43.46887" lon="6.80941">
        <ele>66.2</ele>
        <time>2021-03-19T08:52:13Z</time>
      </trkpt>
      <trkpt lat="43.46887" lon="6.80939">
        <ele>66.2</ele>
        <time>2021-03-19T08:52:14Z</time>
      </trkpt>
      <trkpt lat="43.46887" lon="6.80937">
        <ele>66</ele>
        <time>2021-03-19T08:52:15Z</time>
      </trkpt>
      <trkpt lat="43.46887" lon="6.80936">
        <ele>65.8</ele>
        <time>2021-03-19T08:52:16Z</time>
      </trkpt>
      <trkpt lat="43.46887" lon="6.80934">
        <ele>65.8</ele>
        <time>2021-03-19T08:52:17Z</time>
      </trkpt>
      <trkpt lat="43.46887" lon="6.80932">
        <ele>65.8</ele>
        <time>2021-03-19T08:52:18Z</time>
      </trkpt>
      <trkpt lat="43.46906" lon="6.80866">
        <ele>66.4</ele>
        <time>2021-03-19T08:52:46Z</time>
      </trkpt>
      <trkpt lat="43.46913" lon="6.80798">
        <ele>65.6</ele>
        <time>2021-03-19T08:53:16Z</time>
      </trkpt>
      <trkpt lat="43.46911" lon="6.80769">
        <ele>65.4</ele>
        <time>2021-03-19T08:53:30Z</time>
      </trkpt>
      <trkpt lat="43.4691" lon="6.80771">
        <ele>65.4</ele>
        <time>2021-03-19T08:53:33Z</time>
      </trkpt>
      <trkpt lat="43.46913" lon="6.80784">
        <ele>65.4</ele>
        <time>2021-03-19T08:53:51Z</time>
      </trkpt>
      <trkpt lat="43.46913" lon="6.80783">
        <ele>65.4</ele>
        <time>2021-03-19T08:53:52Z</time>
      </trkpt>
      <trkpt lat="43.46912" lon="6.80781">
        <ele>65.4</ele>
        <time>2021-03-19T08:53:53Z</time>
      </trkpt>
      <trkpt lat="43.46902" lon="6.80764">
        <ele>65.4</ele>
        <time>2021-03-19T08:54:12Z</time>
      </trkpt>
      <trkpt lat="43.46915" lon="6.80746">
        <ele>64.8</ele>
        <time>2021-03-19T08:57:58Z</time>
      </trkpt>
      <trkpt lat="43.46916" lon="6.80745">
        <ele>64.8</ele>
        <time>2021-03-19T08:57:59Z</time>
      </trkpt>
      <trkpt lat="43.46956" lon="6.80719">
        <ele>67.2</ele>
        <time>2021-03-19T08:58:31Z</time>
      </trkpt>
      <trkpt lat="43.46957" lon="6.80718">
        <ele>67.2</ele>
        <time>2021-03-19T08:58:32Z</time>
      </trkpt>
      <trkpt lat="43.46958" lon="6.80718">
        <ele>67.2</ele>
        <time>2021-03-19T08:58:33Z</time>
      </trkpt>
      <trkpt lat="43.4696" lon="6.80716">
        <ele>67.2</ele>
        <time>2021-03-19T08:58:35Z</time>
      </trkpt>
      <trkpt lat="43.46962" lon="6.80715">
        <ele>67.2</ele>
        <time>2021-03-19T08:58:36Z</time>
      </trkpt>
      <trkpt lat="43.46964" lon="6.80714">
        <ele>67.2</ele>
        <time>2021-03-19T08:58:37Z</time>
      </trkpt>
      <trkpt lat="43.46965" lon="6.80714">
        <ele>67.4</ele>
        <time>2021-03-19T08:58:38Z</time>
      </trkpt>
      <trkpt lat="43.46967" lon="6.80714">
        <ele>67.8</ele>
        <time>2021-03-19T08:58:39Z</time>
      </trkpt>
      <trkpt lat="43.46968" lon="6.80713">
        <ele>67.8</ele>
        <time>2021-03-19T08:58:40Z</time>
      </trkpt>
      <trkpt lat="43.46969" lon="6.80713">
        <ele>68</ele>
        <time>2021-03-19T08:58:41Z</time>
      </trkpt>
      <trkpt lat="43.4697" lon="6.80712">
        <ele>68</ele>
        <time>2021-03-19T08:58:42Z</time>
      </trkpt>
      <trkpt lat="43.46971" lon="6.80711">
        <ele>68</ele>
        <time>2021-03-19T08:58:43Z</time>
      </trkpt>
      <trkpt lat="43.46971" lon="6.80709">
        <ele>68</ele>
        <time>2021-03-19T08:58:44Z</time>
      </trkpt>
      <trkpt lat="43.46972" lon="6.80708">
        <ele>68</ele>
        <time>2021-03-19T08:58:45Z</time>
      </trkpt>
      <trkpt lat="43.46973" lon="6.80706">
        <ele>68</ele>
        <time>2021-03-19T08:58:46Z</time>
      </trkpt>
      <trkpt lat="43.46974" lon="6.80705">
        <ele>68</ele>
        <time>2021-03-19T08:58:47Z</time>
      </trkpt>
      <trkpt lat="43.46975" lon="6.80704">
        <ele>68</ele>
        <time>2021-03-19T08:58:48Z</time>
      </trkpt>
      <trkpt lat="43.46976" lon="6.80704">
        <ele>68</ele>
        <time>2021-03-19T08:58:49Z</time>
      </trkpt>
      <trkpt lat="43.46977" lon="6.80703">
        <ele>68</ele>
        <time>2021-03-19T08:58:50Z</time>
      </trkpt>
      <trkpt lat="43.46979" lon="6.80702">
        <ele>68.2</ele>
        <time>2021-03-19T08:58:51Z</time>
      </trkpt>
      <trkpt lat="43.4698" lon="6.80702">
        <ele>68.2</ele>
        <time>2021-03-19T08:58:52Z</time>
      </trkpt>
      <trkpt lat="43.46981" lon="6.80704">
        <ele>68.2</ele>
        <time>2021-03-19T08:58:54Z</time>
      </trkpt>
      <trkpt lat="43.46981" lon="6.80705">
        <ele>68.2</ele>
        <time>2021-03-19T08:58:55Z</time>
      </trkpt>
      <trkpt lat="43.46982" lon="6.80707">
        <ele>68.2</ele>
        <time>2021-03-19T08:58:56Z</time>
      </trkpt>
      <trkpt lat="43.46985" lon="6.80718">
        <ele>68.4</ele>
        <time>2021-03-19T08:59:03Z</time>
      </trkpt>
      <trkpt lat="43.46985" lon="6.8072">
        <ele>68.6</ele>
        <time>2021-03-19T08:59:04Z</time>
      </trkpt>
      <trkpt lat="43.46986" lon="6.80721">
        <ele>69</ele>
        <time>2021-03-19T08:59:05Z</time>
      </trkpt>
      <trkpt lat="43.47016" lon="6.80742">
        <ele>72</ele>
        <time>2021-03-19T08:59:31Z</time>
      </trkpt>
      <trkpt lat="43.47049" lon="6.8076">
        <ele>75</ele>
        <time>2021-03-19T08:59:58Z</time>
      </trkpt>
      <trkpt lat="43.47064" lon="6.80772">
        <ele>78</ele>
        <time>2021-03-19T09:00:11Z</time>
      </trkpt>
      <trkpt lat="43.47096" lon="6.80785">
        <ele>81</ele>
        <time>2021-03-19T09:00:35Z</time>
      </trkpt>
      <trkpt lat="43.47121" lon="6.808">
        <ele>83.6</ele>
        <time>2021-03-19T09:00:54Z</time>
      </trkpt>
      <trkpt lat="43.47123" lon="6.808">
        <ele>83.6</ele>
        <time>2021-03-19T09:00:55Z</time>
      </trkpt>
      <trkpt lat="43.47124" lon="6.80801">
        <ele>83.6</ele>
        <time>2021-03-19T09:00:56Z</time>
      </trkpt>
      <trkpt lat="43.4714" lon="6.80798">
        <ele>83.8</ele>
        <time>2021-03-19T09:01:07Z</time>
      </trkpt>
      <trkpt lat="43.47177" lon="6.80798">
        <ele>84.6</ele>
        <time>2021-03-19T09:01:29Z</time>
      </trkpt>
      <trkpt lat="43.47197" lon="6.80803">
        <ele>87.8</ele>
        <time>2021-03-19T09:01:45Z</time>
      </trkpt>
      <trkpt lat="43.47235" lon="6.80846">
        <ele>89.2</ele>
        <time>2021-03-19T09:02:16Z</time>
      </trkpt>
      <trkpt lat="43.47258" lon="6.80907">
        <ele>91</ele>
        <time>2021-03-19T09:02:50Z</time>
      </trkpt>
      <trkpt lat="43.47271" lon="6.80949">
        <ele>92.6</ele>
        <time>2021-03-19T09:03:11Z</time>
      </trkpt>
      <trkpt lat="43.47271" lon="6.80951">
        <ele>92.8</ele>
        <time>2021-03-19T09:03:12Z</time>
      </trkpt>
      <trkpt lat="43.47271" lon="6.80953">
        <ele>93</ele>
        <time>2021-03-19T09:03:13Z</time>
      </trkpt>
      <trkpt lat="43.47271" lon="6.80956">
        <ele>93.2</ele>
        <time>2021-03-19T09:03:14Z</time>
      </trkpt>
      <trkpt lat="43.47271" lon="6.80958">
        <ele>93.4</ele>
        <time>2021-03-19T09:03:15Z</time>
      </trkpt>
      <trkpt lat="43.47277" lon="6.81004">
        <ele>96.6</ele>
        <time>2021-03-19T09:03:38Z</time>
      </trkpt>
      <trkpt lat="43.47284" lon="6.81018">
        <ele>97</ele>
        <time>2021-03-19T09:03:45Z</time>
      </trkpt>
      <trkpt lat="43.47285" lon="6.8102">
        <ele>96.8</ele>
        <time>2021-03-19T09:03:46Z</time>
      </trkpt>
      <trkpt lat="43.47285" lon="6.81023">
        <ele>97</ele>
        <time>2021-03-19T09:03:47Z</time>
      </trkpt>
      <trkpt lat="43.47285" lon="6.81025">
        <ele>97.2</ele>
        <time>2021-03-19T09:03:48Z</time>
      </trkpt>
      <trkpt lat="43.47285" lon="6.81027">
        <ele>97.4</ele>
        <time>2021-03-19T09:03:49Z</time>
      </trkpt>
      <trkpt lat="43.47285" lon="6.81029">
        <ele>97.4</ele>
        <time>2021-03-19T09:03:50Z</time>
      </trkpt>
      <trkpt lat="43.47285" lon="6.8103">
        <ele>97.4</ele>
        <time>2021-03-19T09:03:51Z</time>
      </trkpt>
      <trkpt lat="43.47286" lon="6.81032">
        <ele>97.6</ele>
        <time>2021-03-19T09:03:52Z</time>
      </trkpt>
      <trkpt lat="43.47286" lon="6.81034">
        <ele>97.6</ele>
        <time>2021-03-19T09:03:53Z</time>
      </trkpt>
      <trkpt lat="43.47296" lon="6.81089">
        <ele>100.8</ele>
        <time>2021-03-19T09:04:23Z</time>
      </trkpt>
      <trkpt lat="43.47293" lon="6.81158">
        <ele>102.2</ele>
        <time>2021-03-19T09:04:57Z</time>
      </trkpt>
      <trkpt lat="43.47294" lon="6.8116">
        <ele>102</ele>
        <time>2021-03-19T09:04:58Z</time>
      </trkpt>
      <trkpt lat="43.47295" lon="6.81161">
        <ele>102.2</ele>
        <time>2021-03-19T09:04:59Z</time>
      </trkpt>
      <trkpt lat="43.47297" lon="6.81161">
        <ele>102.4</ele>
        <time>2021-03-19T09:05:01Z</time>
      </trkpt>
      <trkpt lat="43.47305" lon="6.81157">
        <ele>103.2</ele>
        <time>2021-03-19T09:05:07Z</time>
      </trkpt>
      <trkpt lat="43.47305" lon="6.81156">
        <ele>103.2</ele>
        <time>2021-03-19T09:05:08Z</time>
      </trkpt>
      <trkpt lat="43.47318" lon="6.81139">
        <ele>105.2</ele>
        <time>2021-03-19T09:05:21Z</time>
      </trkpt>
      <trkpt lat="43.47319" lon="6.81138">
        <ele>105.2</ele>
        <time>2021-03-19T09:05:22Z</time>
      </trkpt>
      <trkpt lat="43.47328" lon="6.8113">
        <ele>105.6</ele>
        <time>2021-03-19T09:05:29Z</time>
      </trkpt>
      <trkpt lat="43.47329" lon="6.81129">
        <ele>106</ele>
        <time>2021-03-19T09:05:30Z</time>
      </trkpt>
      <trkpt lat="43.47329" lon="6.81128">
        <ele>106.4</ele>
        <time>2021-03-19T09:05:31Z</time>
      </trkpt>
      <trkpt lat="43.4733" lon="6.81126">
        <ele>106.6</ele>
        <time>2021-03-19T09:05:32Z</time>
      </trkpt>
      <trkpt lat="43.4733" lon="6.81125">
        <ele>106.8</ele>
        <time>2021-03-19T09:05:33Z</time>
      </trkpt>
      <trkpt lat="43.47331" lon="6.81123">
        <ele>107</ele>
        <time>2021-03-19T09:05:34Z</time>
      </trkpt>
      <trkpt lat="43.47332" lon="6.81122">
        <ele>107.4</ele>
        <time>2021-03-19T09:05:35Z</time>
      </trkpt>
      <trkpt lat="43.47333" lon="6.8112">
        <ele>107.4</ele>
        <time>2021-03-19T09:05:36Z</time>
      </trkpt>
      <trkpt lat="43.47333" lon="6.81119">
        <ele>107.6</ele>
        <time>2021-03-19T09:05:37Z</time>
      </trkpt>
      <trkpt lat="43.47364" lon="6.81091">
        <ele>110.8</ele>
        <time>2021-03-19T09:06:02Z</time>
      </trkpt>
      <trkpt lat="43.47377" lon="6.81089">
        <ele>112.8</ele>
        <time>2021-03-19T09:06:13Z</time>
      </trkpt>
      <trkpt lat="43.47379" lon="6.81089">
        <ele>112.8</ele>
        <time>2021-03-19T09:06:14Z</time>
      </trkpt>
      <trkpt lat="43.4738" lon="6.81088">
        <ele>112.8</ele>
        <time>2021-03-19T09:06:15Z</time>
      </trkpt>
      <trkpt lat="43.47382" lon="6.81088">
        <ele>112.6</ele>
        <time>2021-03-19T09:06:16Z</time>
      </trkpt>
      <trkpt lat="43.47383" lon="6.81087">
        <ele>112.6</ele>
        <time>2021-03-19T09:06:17Z</time>
      </trkpt>
      <trkpt lat="43.47384" lon="6.81086">
        <ele>112.4</ele>
        <time>2021-03-19T09:06:18Z</time>
      </trkpt>
      <trkpt lat="43.47386" lon="6.81086">
        <ele>112.4</ele>
        <time>2021-03-19T09:06:19Z</time>
      </trkpt>
      <trkpt lat="43.47387" lon="6.81084">
        <ele>112.4</ele>
        <time>2021-03-19T09:06:20Z</time>
      </trkpt>
      <trkpt lat="43.47386" lon="6.81082">
        <ele>112.2</ele>
        <time>2021-03-19T09:06:21Z</time>
      </trkpt>
      <trkpt lat="43.47386" lon="6.8108">
        <ele>112</ele>
        <time>2021-03-19T09:06:22Z</time>
      </trkpt>
      <trkpt lat="43.47385" lon="6.81078">
        <ele>112</ele>
        <time>2021-03-19T09:06:23Z</time>
      </trkpt>
      <trkpt lat="43.47385" lon="6.81077">
        <ele>112.2</ele>
        <time>2021-03-19T09:06:24Z</time>
      </trkpt>
      <trkpt lat="43.47385" lon="6.81075">
        <ele>112.4</ele>
        <time>2021-03-19T09:06:25Z</time>
      </trkpt>
      <trkpt lat="43.47368" lon="6.81045">
        <ele>113.4</ele>
        <time>2021-03-19T09:06:47Z</time>
      </trkpt>
      <trkpt lat="43.47368" lon="6.81043">
        <ele>113.8</ele>
        <time>2021-03-19T09:06:48Z</time>
      </trkpt>
      <trkpt lat="43.47368" lon="6.81041">
        <ele>114.2</ele>
        <time>2021-03-19T09:06:49Z</time>
      </trkpt>
      <trkpt lat="43.47368" lon="6.81038">
        <ele>114.4</ele>
        <time>2021-03-19T09:06:50Z</time>
      </trkpt>
      <trkpt lat="43.47368" lon="6.81036">
        <ele>114.6</ele>
        <time>2021-03-19T09:06:51Z</time>
      </trkpt>
      <trkpt lat="43.47368" lon="6.81035">
        <ele>114.8</ele>
        <time>2021-03-19T09:06:52Z</time>
      </trkpt>
      <trkpt lat="43.47368" lon="6.81033">
        <ele>114.8</ele>
        <time>2021-03-19T09:06:53Z</time>
      </trkpt>
      <trkpt lat="43.47368" lon="6.8103">
        <ele>115</ele>
        <time>2021-03-19T09:06:54Z</time>
      </trkpt>
      <trkpt lat="43.47366" lon="6.80979">
        <ele>118.2</ele>
        <time>2021-03-19T09:07:20Z</time>
      </trkpt>
      <trkpt lat="43.47368" lon="6.80925">
        <ele>121.2</ele>
        <time>2021-03-19T09:07:48Z</time>
      </trkpt>
      <trkpt lat="43.4737" lon="6.8091">
        <ele>121.6</ele>
        <time>2021-03-19T09:07:55Z</time>
      </trkpt>
      <trkpt lat="43.4737" lon="6.80908">
        <ele>121.6</ele>
        <time>2021-03-19T09:07:56Z</time>
      </trkpt>
      <trkpt lat="43.4737" lon="6.80905">
        <ele>121.8</ele>
        <time>2021-03-19T09:07:57Z</time>
      </trkpt>
      <trkpt lat="43.4737" lon="6.80903">
        <ele>122</ele>
        <time>2021-03-19T09:07:58Z</time>
      </trkpt>
      <trkpt lat="43.4737" lon="6.809">
        <ele>122</ele>
        <time>2021-03-19T09:07:59Z</time>
      </trkpt>
      <trkpt lat="43.4737" lon="6.80898">
        <ele>122</ele>
        <time>2021-03-19T09:08:00Z</time>
      </trkpt>
      <trkpt lat="43.4737" lon="6.80867">
        <ele>122.8</ele>
        <time>2021-03-19T09:08:17Z</time>
      </trkpt>
      <trkpt lat="43.4737" lon="6.80865">
        <ele>123</ele>
        <time>2021-03-19T09:08:18Z</time>
      </trkpt>
      <trkpt lat="43.4737" lon="6.80863">
        <ele>123.2</ele>
        <time>2021-03-19T09:08:19Z</time>
      </trkpt>
      <trkpt lat="43.4737" lon="6.80862">
        <ele>123.4</ele>
        <time>2021-03-19T09:08:20Z</time>
      </trkpt>
      <trkpt lat="43.47369" lon="6.80861">
        <ele>123.6</ele>
        <time>2021-03-19T09:08:21Z</time>
      </trkpt>
      <trkpt lat="43.47369" lon="6.8086">
        <ele>123.8</ele>
        <time>2021-03-19T09:08:22Z</time>
      </trkpt>
      <trkpt lat="43.47369" lon="6.80858">
        <ele>124</ele>
        <time>2021-03-19T09:08:23Z</time>
      </trkpt>
      <trkpt lat="43.47368" lon="6.80856">
        <ele>124</ele>
        <time>2021-03-19T09:08:24Z</time>
      </trkpt>
      <trkpt lat="43.47368" lon="6.80854">
        <ele>124.2</ele>
        <time>2021-03-19T09:08:25Z</time>
      </trkpt>
      <trkpt lat="43.47367" lon="6.80846">
        <ele>125</ele>
        <time>2021-03-19T09:08:29Z</time>
      </trkpt>
      <trkpt lat="43.47367" lon="6.80844">
        <ele>125.2</ele>
        <time>2021-03-19T09:08:30Z</time>
      </trkpt>
      <trkpt lat="43.47367" lon="6.80842">
        <ele>125.2</ele>
        <time>2021-03-19T09:08:31Z</time>
      </trkpt>
      <trkpt lat="43.47367" lon="6.80841">
        <ele>125.4</ele>
        <time>2021-03-19T09:08:32Z</time>
      </trkpt>
      <trkpt lat="43.47367" lon="6.80839">
        <ele>125.6</ele>
        <time>2021-03-19T09:08:33Z</time>
      </trkpt>
      <trkpt lat="43.47367" lon="6.80837">
        <ele>125.8</ele>
        <time>2021-03-19T09:08:34Z</time>
      </trkpt>
      <trkpt lat="43.47366" lon="6.80836">
        <ele>126</ele>
        <time>2021-03-19T09:08:35Z</time>
      </trkpt>
      <trkpt lat="43.47366" lon="6.80834">
        <ele>126</ele>
        <time>2021-03-19T09:08:36Z</time>
      </trkpt>
      <trkpt lat="43.47367" lon="6.80832">
        <ele>126</ele>
        <time>2021-03-19T09:08:37Z</time>
      </trkpt>
      <trkpt lat="43.47368" lon="6.80815">
        <ele>127.8</ele>
        <time>2021-03-19T09:08:46Z</time>
      </trkpt>
      <trkpt lat="43.47369" lon="6.80814">
        <ele>128</ele>
        <time>2021-03-19T09:08:47Z</time>
      </trkpt>
      <trkpt lat="43.47378" lon="6.80798">
        <ele>129.8</ele>
        <time>2021-03-19T09:08:57Z</time>
      </trkpt>
      <trkpt lat="43.47379" lon="6.80796">
        <ele>129.8</ele>
        <time>2021-03-19T09:08:58Z</time>
      </trkpt>
      <trkpt lat="43.4738" lon="6.80795">
        <ele>130.2</ele>
        <time>2021-03-19T09:08:59Z</time>
      </trkpt>
      <trkpt lat="43.47381" lon="6.80793">
        <ele>130.4</ele>
        <time>2021-03-19T09:09:00Z</time>
      </trkpt>
      <trkpt lat="43.47382" lon="6.80792">
        <ele>130.4</ele>
        <time>2021-03-19T09:09:01Z</time>
      </trkpt>
      <trkpt lat="43.47383" lon="6.80791">
        <ele>130.4</ele>
        <time>2021-03-19T09:09:02Z</time>
      </trkpt>
      <trkpt lat="43.47395" lon="6.8078">
        <ele>130.6</ele>
        <time>2021-03-19T09:09:23Z</time>
      </trkpt>
      <trkpt lat="43.47399" lon="6.80764">
        <ele>129.8</ele>
        <time>2021-03-19T09:10:58Z</time>
      </trkpt>
      <trkpt lat="43.47418" lon="6.80752">
        <ele>131.2</ele>
        <time>2021-03-19T09:11:15Z</time>
      </trkpt>
      <trkpt lat="43.47419" lon="6.80752">
        <ele>131.4</ele>
        <time>2021-03-19T09:11:16Z</time>
      </trkpt>
      <trkpt lat="43.4742" lon="6.80751">
        <ele>131.6</ele>
        <time>2021-03-19T09:11:17Z</time>
      </trkpt>
      <trkpt lat="43.47421" lon="6.8075">
        <ele>131.6</ele>
        <time>2021-03-19T09:11:18Z</time>
      </trkpt>
      <trkpt lat="43.47422" lon="6.8075">
        <ele>131.8</ele>
        <time>2021-03-19T09:11:19Z</time>
      </trkpt>
      <trkpt lat="43.47423" lon="6.80749">
        <ele>131.8</ele>
        <time>2021-03-19T09:11:20Z</time>
      </trkpt>
      <trkpt lat="43.47425" lon="6.80749">
        <ele>131.6</ele>
        <time>2021-03-19T09:11:21Z</time>
      </trkpt>
      <trkpt lat="43.47426" lon="6.80748">
        <ele>131.6</ele>
        <time>2021-03-19T09:11:22Z</time>
      </trkpt>
      <trkpt lat="43.47427" lon="6.80747">
        <ele>131.6</ele>
        <time>2021-03-19T09:11:23Z</time>
      </trkpt>
      <trkpt lat="43.47428" lon="6.80746">
        <ele>131.6</ele>
        <time>2021-03-19T09:11:24Z</time>
      </trkpt>
      <trkpt lat="43.47429" lon="6.80744">
        <ele>131.6</ele>
        <time>2021-03-19T09:11:25Z</time>
      </trkpt>
      <trkpt lat="43.4743" lon="6.80742">
        <ele>131.4</ele>
        <time>2021-03-19T09:11:26Z</time>
      </trkpt>
      <trkpt lat="43.47432" lon="6.8074">
        <ele>131.4</ele>
        <time>2021-03-19T09:11:27Z</time>
      </trkpt>
      <trkpt lat="43.47433" lon="6.80739">
        <ele>131.4</ele>
        <time>2021-03-19T09:11:28Z</time>
      </trkpt>
      <trkpt lat="43.47456" lon="6.80718">
        <ele>134.6</ele>
        <time>2021-03-19T09:11:48Z</time>
      </trkpt>
      <trkpt lat="43.47468" lon="6.8071">
        <ele>135.6</ele>
        <time>2021-03-19T09:11:59Z</time>
      </trkpt>
      <trkpt lat="43.47519" lon="6.80711">
        <ele>138.4</ele>
        <time>2021-03-19T09:12:33Z</time>
      </trkpt>
      <trkpt lat="43.47557" lon="6.80723">
        <ele>141.4</ele>
        <time>2021-03-19T09:12:58Z</time>
      </trkpt>
      <trkpt lat="43.47567" lon="6.80723">
        <ele>141.6</ele>
        <time>2021-03-19T09:13:04Z</time>
      </trkpt>
      <trkpt lat="43.47596" lon="6.80758">
        <ele>144.4</ele>
        <time>2021-03-19T09:13:31Z</time>
      </trkpt>
      <trkpt lat="43.4762" lon="6.80817">
        <ele>147.4</ele>
        <time>2021-03-19T09:14:06Z</time>
      </trkpt>
      <trkpt lat="43.47628" lon="6.80841">
        <ele>149</ele>
        <time>2021-03-19T09:14:21Z</time>
      </trkpt>
      <trkpt lat="43.47628" lon="6.80843">
        <ele>148.8</ele>
        <time>2021-03-19T09:14:22Z</time>
      </trkpt>
      <trkpt lat="43.47629" lon="6.80864">
        <ele>150.6</ele>
        <time>2021-03-19T09:14:34Z</time>
      </trkpt>
      <trkpt lat="43.4763" lon="6.80865">
        <ele>150.6</ele>
        <time>2021-03-19T09:14:35Z</time>
      </trkpt>
      <trkpt lat="43.47631" lon="6.80865">
        <ele>150.6</ele>
        <time>2021-03-19T09:14:36Z</time>
      </trkpt>
      <trkpt lat="43.47632" lon="6.80867">
        <ele>150.8</ele>
        <time>2021-03-19T09:14:37Z</time>
      </trkpt>
      <trkpt lat="43.47634" lon="6.80868">
        <ele>150.8</ele>
        <time>2021-03-19T09:14:38Z</time>
      </trkpt>
      <trkpt lat="43.47635" lon="6.80869">
        <ele>150.8</ele>
        <time>2021-03-19T09:14:39Z</time>
      </trkpt>
      <trkpt lat="43.47642" lon="6.80873">
        <ele>151.6</ele>
        <time>2021-03-19T09:14:44Z</time>
      </trkpt>
      <trkpt lat="43.47644" lon="6.80874">
        <ele>151.8</ele>
        <time>2021-03-19T09:14:45Z</time>
      </trkpt>
      <trkpt lat="43.47645" lon="6.80875">
        <ele>151.8</ele>
        <time>2021-03-19T09:14:46Z</time>
      </trkpt>
      <trkpt lat="43.47647" lon="6.80875">
        <ele>151.8</ele>
        <time>2021-03-19T09:14:47Z</time>
      </trkpt>
      <trkpt lat="43.47648" lon="6.80876">
        <ele>151.8</ele>
        <time>2021-03-19T09:14:48Z</time>
      </trkpt>
      <trkpt lat="43.47649" lon="6.80876">
        <ele>151.8</ele>
        <time>2021-03-19T09:14:49Z</time>
      </trkpt>
      <trkpt lat="43.47651" lon="6.80876">
        <ele>151.8</ele>
        <time>2021-03-19T09:14:50Z</time>
      </trkpt>
      <trkpt lat="43.47652" lon="6.80876">
        <ele>152</ele>
        <time>2021-03-19T09:14:51Z</time>
      </trkpt>
      <trkpt lat="43.47653" lon="6.80876">
        <ele>152.4</ele>
        <time>2021-03-19T09:14:52Z</time>
      </trkpt>
      <trkpt lat="43.47655" lon="6.80875">
        <ele>152.6</ele>
        <time>2021-03-19T09:14:53Z</time>
      </trkpt>
      <trkpt lat="43.47656" lon="6.80875">
        <ele>152.6</ele>
        <time>2021-03-19T09:14:54Z</time>
      </trkpt>
      <trkpt lat="43.47658" lon="6.80876">
        <ele>152.8</ele>
        <time>2021-03-19T09:14:55Z</time>
      </trkpt>
      <trkpt lat="43.4767" lon="6.80878">
        <ele>153.8</ele>
        <time>2021-03-19T09:15:04Z</time>
      </trkpt>
      <trkpt lat="43.47671" lon="6.80878">
        <ele>153.8</ele>
        <time>2021-03-19T09:15:05Z</time>
      </trkpt>
      <trkpt lat="43.47673" lon="6.80879">
        <ele>153.6</ele>
        <time>2021-03-19T09:15:06Z</time>
      </trkpt>
      <trkpt lat="43.47716" lon="6.80915">
        <ele>156.2</ele>
        <time>2021-03-19T09:15:40Z</time>
      </trkpt>
      <trkpt lat="43.4772" lon="6.80921">
        <ele>156.6</ele>
        <time>2021-03-19T09:15:44Z</time>
      </trkpt>
      <trkpt lat="43.47721" lon="6.80923">
        <ele>156.6</ele>
        <time>2021-03-19T09:15:45Z</time>
      </trkpt>
      <trkpt lat="43.4772" lon="6.80924">
        <ele>156.8</ele>
        <time>2021-03-19T09:15:46Z</time>
      </trkpt>
      <trkpt lat="43.4772" lon="6.80926">
        <ele>156.8</ele>
        <time>2021-03-19T09:15:47Z</time>
      </trkpt>
      <trkpt lat="43.47719" lon="6.80928">
        <ele>157</ele>
        <time>2021-03-19T09:15:48Z</time>
      </trkpt>
      <trkpt lat="43.47719" lon="6.8093">
        <ele>157.2</ele>
        <time>2021-03-19T09:15:49Z</time>
      </trkpt>
      <trkpt lat="43.4772" lon="6.80932">
        <ele>157.2</ele>
        <time>2021-03-19T09:15:50Z</time>
      </trkpt>
      <trkpt lat="43.4772" lon="6.80933">
        <ele>157.4</ele>
        <time>2021-03-19T09:15:51Z</time>
      </trkpt>
      <trkpt lat="43.47721" lon="6.80934">
        <ele>157.6</ele>
        <time>2021-03-19T09:15:52Z</time>
      </trkpt>
      <trkpt lat="43.47722" lon="6.80936">
        <ele>157.6</ele>
        <time>2021-03-19T09:15:53Z</time>
      </trkpt>
      <trkpt lat="43.47723" lon="6.80938">
        <ele>157.6</ele>
        <time>2021-03-19T09:15:54Z</time>
      </trkpt>
      <trkpt lat="43.47723" lon="6.8094">
        <ele>157.8</ele>
        <time>2021-03-19T09:15:55Z</time>
      </trkpt>
      <trkpt lat="43.47724" lon="6.80942">
        <ele>158</ele>
        <time>2021-03-19T09:15:56Z</time>
      </trkpt>
      <trkpt lat="43.47725" lon="6.80943">
        <ele>158.2</ele>
        <time>2021-03-19T09:15:57Z</time>
      </trkpt>
      <trkpt lat="43.47732" lon="6.80948">
        <ele>159</ele>
        <time>2021-03-19T09:16:02Z</time>
      </trkpt>
      <trkpt lat="43.47733" lon="6.80949">
        <ele>159.2</ele>
        <time>2021-03-19T09:16:03Z</time>
      </trkpt>
      <trkpt lat="43.47735" lon="6.80949">
        <ele>159.4</ele>
        <time>2021-03-19T09:16:04Z</time>
      </trkpt>
      <trkpt lat="43.47736" lon="6.80949">
        <ele>159.4</ele>
        <time>2021-03-19T09:16:05Z</time>
      </trkpt>
      <trkpt lat="43.47737" lon="6.80948">
        <ele>159.6</ele>
        <time>2021-03-19T09:16:06Z</time>
      </trkpt>
      <trkpt lat="43.47738" lon="6.80948">
        <ele>159.6</ele>
        <time>2021-03-19T09:16:07Z</time>
      </trkpt>
      <trkpt lat="43.47739" lon="6.80947">
        <ele>159.8</ele>
        <time>2021-03-19T09:16:08Z</time>
      </trkpt>
      <trkpt lat="43.4774" lon="6.80946">
        <ele>160</ele>
        <time>2021-03-19T09:16:09Z</time>
      </trkpt>
      <trkpt lat="43.47742" lon="6.80944">
        <ele>160.2</ele>
        <time>2021-03-19T09:16:10Z</time>
      </trkpt>
      <trkpt lat="43.47743" lon="6.80943">
        <ele>160.4</ele>
        <time>2021-03-19T09:16:11Z</time>
      </trkpt>
      <trkpt lat="43.47744" lon="6.80942">
        <ele>160.4</ele>
        <time>2021-03-19T09:16:12Z</time>
      </trkpt>
      <trkpt lat="43.47744" lon="6.80941">
        <ele>160.6</ele>
        <time>2021-03-19T09:16:13Z</time>
      </trkpt>
      <trkpt lat="43.47745" lon="6.80941">
        <ele>160.6</ele>
        <time>2021-03-19T09:16:14Z</time>
      </trkpt>
      <trkpt lat="43.47745" lon="6.80939">
        <ele>160.4</ele>
        <time>2021-03-19T09:16:15Z</time>
      </trkpt>
      <trkpt lat="43.47745" lon="6.80938">
        <ele>160.4</ele>
        <time>2021-03-19T09:16:16Z</time>
      </trkpt>
      <trkpt lat="43.47746" lon="6.80936">
        <ele>160.4</ele>
        <time>2021-03-19T09:16:17Z</time>
      </trkpt>
      <trkpt lat="43.47746" lon="6.80935">
        <ele>160.4</ele>
        <time>2021-03-19T09:16:18Z</time>
      </trkpt>
      <trkpt lat="43.47755" lon="6.80894">
        <ele>160</ele>
        <time>2021-03-19T09:16:40Z</time>
      </trkpt>
      <trkpt lat="43.47747" lon="6.80852">
        <ele>159.8</ele>
        <time>2021-03-19T09:17:01Z</time>
      </trkpt>
      <trkpt lat="43.4775" lon="6.80804">
        <ele>159.2</ele>
        <time>2021-03-19T09:17:29Z</time>
      </trkpt>
      <trkpt lat="43.47752" lon="6.80784">
        <ele>159.8</ele>
        <time>2021-03-19T09:18:10Z</time>
      </trkpt>
      <trkpt lat="43.4777" lon="6.80729">
        <ele>160</ele>
        <time>2021-03-19T09:18:45Z</time>
      </trkpt>
      <trkpt lat="43.4782" lon="6.80749">
        <ele>161</ele>
        <time>2021-03-19T09:19:21Z</time>
      </trkpt>
      <trkpt lat="43.47867" lon="6.80778">
        <ele>161.6</ele>
        <time>2021-03-19T09:19:56Z</time>
      </trkpt>
      <trkpt lat="43.47896" lon="6.80795">
        <ele>161.8</ele>
        <time>2021-03-19T09:20:16Z</time>
      </trkpt>
      <trkpt lat="43.47897" lon="6.80794">
        <ele>161.8</ele>
        <time>2021-03-19T09:20:17Z</time>
      </trkpt>
      <trkpt lat="43.47899" lon="6.80793">
        <ele>161.6</ele>
        <time>2021-03-19T09:20:18Z</time>
      </trkpt>
      <trkpt lat="43.479" lon="6.80791">
        <ele>161.6</ele>
        <time>2021-03-19T09:20:19Z</time>
      </trkpt>
      <trkpt lat="43.47901" lon="6.8079">
        <ele>161.4</ele>
        <time>2021-03-19T09:20:20Z</time>
      </trkpt>
      <trkpt lat="43.47903" lon="6.80788">
        <ele>161.4</ele>
        <time>2021-03-19T09:20:21Z</time>
      </trkpt>
      <trkpt lat="43.47911" lon="6.80759">
        <ele>162.6</ele>
        <time>2021-03-19T09:20:36Z</time>
      </trkpt>
      <trkpt lat="43.47911" lon="6.80757">
        <ele>162.6</ele>
        <time>2021-03-19T09:20:37Z</time>
      </trkpt>
      <trkpt lat="43.47926" lon="6.80705">
        <ele>165.6</ele>
        <time>2021-03-19T09:21:04Z</time>
      </trkpt>
      <trkpt lat="43.47926" lon="6.80703">
        <ele>165.6</ele>
        <time>2021-03-19T09:21:05Z</time>
      </trkpt>
      <trkpt lat="43.47927" lon="6.80702">
        <ele>165.6</ele>
        <time>2021-03-19T09:21:06Z</time>
      </trkpt>
      <trkpt lat="43.47952" lon="6.80642">
        <ele>167.8</ele>
        <time>2021-03-19T09:21:41Z</time>
      </trkpt>
      <trkpt lat="43.4799" lon="6.806">
        <ele>170</ele>
        <time>2021-03-19T09:22:12Z</time>
      </trkpt>
      <trkpt lat="43.48038" lon="6.80585">
        <ele>171.8</ele>
        <time>2021-03-19T09:22:43Z</time>
      </trkpt>
      <trkpt lat="43.48047" lon="6.80586">
        <ele>172.6</ele>
        <time>2021-03-19T09:22:50Z</time>
      </trkpt>
      <trkpt lat="43.48048" lon="6.80586">
        <ele>172.8</ele>
        <time>2021-03-19T09:22:51Z</time>
      </trkpt>
      <trkpt lat="43.48049" lon="6.80586">
        <ele>172.8</ele>
        <time>2021-03-19T09:22:52Z</time>
      </trkpt>
      <trkpt lat="43.48051" lon="6.80587">
        <ele>173</ele>
        <time>2021-03-19T09:22:53Z</time>
      </trkpt>
      <trkpt lat="43.48053" lon="6.80589">
        <ele>173</ele>
        <time>2021-03-19T09:22:54Z</time>
      </trkpt>
      <trkpt lat="43.48054" lon="6.80589">
        <ele>173</ele>
        <time>2021-03-19T09:22:55Z</time>
      </trkpt>
      <trkpt lat="43.48056" lon="6.8059">
        <ele>173.2</ele>
        <time>2021-03-19T09:22:56Z</time>
      </trkpt>
      <trkpt lat="43.48057" lon="6.8059">
        <ele>173.4</ele>
        <time>2021-03-19T09:22:57Z</time>
      </trkpt>
      <trkpt lat="43.48058" lon="6.80591">
        <ele>173.4</ele>
        <time>2021-03-19T09:22:58Z</time>
      </trkpt>
      <trkpt lat="43.4806" lon="6.80592">
        <ele>173.2</ele>
        <time>2021-03-19T09:22:59Z</time>
      </trkpt>
      <trkpt lat="43.48061" lon="6.80592">
        <ele>173</ele>
        <time>2021-03-19T09:23:00Z</time>
      </trkpt>
      <trkpt lat="43.48071" lon="6.80599">
        <ele>173</ele>
        <time>2021-03-19T09:23:07Z</time>
      </trkpt>
      <trkpt lat="43.48074" lon="6.80602">
        <ele>172.8</ele>
        <time>2021-03-19T09:23:11Z</time>
      </trkpt>
      <trkpt lat="43.48075" lon="6.80603">
        <ele>172.8</ele>
        <time>2021-03-19T09:23:12Z</time>
      </trkpt>
      <trkpt lat="43.48096" lon="6.80637">
        <ele>171</ele>
        <time>2021-03-19T09:23:34Z</time>
      </trkpt>
      <trkpt lat="43.48096" lon="6.80645">
        <ele>170.4</ele>
        <time>2021-03-19T09:23:38Z</time>
      </trkpt>
      <trkpt lat="43.48095" lon="6.80647">
        <ele>170.6</ele>
        <time>2021-03-19T09:23:39Z</time>
      </trkpt>
      <trkpt lat="43.48095" lon="6.80648">
        <ele>170.4</ele>
        <time>2021-03-19T09:23:40Z</time>
      </trkpt>
      <trkpt lat="43.48095" lon="6.8065">
        <ele>170.4</ele>
        <time>2021-03-19T09:23:41Z</time>
      </trkpt>
      <trkpt lat="43.48095" lon="6.80652">
        <ele>170.2</ele>
        <time>2021-03-19T09:23:42Z</time>
      </trkpt>
      <trkpt lat="43.48095" lon="6.80657">
        <ele>169.8</ele>
        <time>2021-03-19T09:23:44Z</time>
      </trkpt>
      <trkpt lat="43.48093" lon="6.80665">
        <ele>169.4</ele>
        <time>2021-03-19T09:23:48Z</time>
      </trkpt>
      <trkpt lat="43.48092" lon="6.80666">
        <ele>169.6</ele>
        <time>2021-03-19T09:23:49Z</time>
      </trkpt>
      <trkpt lat="43.48092" lon="6.80668">
        <ele>169.8</ele>
        <time>2021-03-19T09:23:50Z</time>
      </trkpt>
      <trkpt lat="43.48088" lon="6.8068">
        <ele>169</ele>
        <time>2021-03-19T09:23:57Z</time>
      </trkpt>
      <trkpt lat="43.48073" lon="6.80716">
        <ele>167.6</ele>
        <time>2021-03-19T09:24:14Z</time>
      </trkpt>
      <trkpt lat="43.48073" lon="6.80718">
        <ele>167.4</ele>
        <time>2021-03-19T09:24:15Z</time>
      </trkpt>
      <trkpt lat="43.48072" lon="6.80721">
        <ele>167.6</ele>
        <time>2021-03-19T09:24:16Z</time>
      </trkpt>
      <trkpt lat="43.48041" lon="6.80778">
        <ele>164.4</ele>
        <time>2021-03-19T09:24:48Z</time>
      </trkpt>
      <trkpt lat="43.48039" lon="6.80781">
        <ele>164.4</ele>
        <time>2021-03-19T09:24:50Z</time>
      </trkpt>
      <trkpt lat="43.48038" lon="6.80782">
        <ele>164.4</ele>
        <time>2021-03-19T09:24:51Z</time>
      </trkpt>
      <trkpt lat="43.48038" lon="6.80784">
        <ele>164.2</ele>
        <time>2021-03-19T09:24:52Z</time>
      </trkpt>
      <trkpt lat="43.48037" lon="6.80784">
        <ele>164</ele>
        <time>2021-03-19T09:24:53Z</time>
      </trkpt>
      <trkpt lat="43.48036" lon="6.80785">
        <ele>163.8</ele>
        <time>2021-03-19T09:24:54Z</time>
      </trkpt>
      <trkpt lat="43.47988" lon="6.808">
        <ele>162.2</ele>
        <time>2021-03-19T09:25:25Z</time>
      </trkpt>
      <trkpt lat="43.47986" lon="6.808">
        <ele>162.2</ele>
        <time>2021-03-19T09:25:26Z</time>
      </trkpt>
      <trkpt lat="43.47985" lon="6.80801">
        <ele>162.4</ele>
        <time>2021-03-19T09:25:27Z</time>
      </trkpt>
      <trkpt lat="43.47984" lon="6.80801">
        <ele>162.6</ele>
        <time>2021-03-19T09:25:28Z</time>
      </trkpt>
      <trkpt lat="43.47983" lon="6.80801">
        <ele>162.8</ele>
        <time>2021-03-19T09:25:29Z</time>
      </trkpt>
      <trkpt lat="43.47981" lon="6.80802">
        <ele>162.8</ele>
        <time>2021-03-19T09:25:30Z</time>
      </trkpt>
      <trkpt lat="43.4798" lon="6.80802">
        <ele>162.8</ele>
        <time>2021-03-19T09:25:31Z</time>
      </trkpt>
      <trkpt lat="43.47978" lon="6.80801">
        <ele>163</ele>
        <time>2021-03-19T09:25:32Z</time>
      </trkpt>
      <trkpt lat="43.47976" lon="6.80801">
        <ele>163</ele>
        <time>2021-03-19T09:25:33Z</time>
      </trkpt>
      <trkpt lat="43.47975" lon="6.80801">
        <ele>163.2</ele>
        <time>2021-03-19T09:25:34Z</time>
      </trkpt>
      <trkpt lat="43.47973" lon="6.80801">
        <ele>163.2</ele>
        <time>2021-03-19T09:25:35Z</time>
      </trkpt>
      <trkpt lat="43.47972" lon="6.80802">
        <ele>163.2</ele>
        <time>2021-03-19T09:25:36Z</time>
      </trkpt>
      <trkpt lat="43.4797" lon="6.80802">
        <ele>163</ele>
        <time>2021-03-19T09:25:37Z</time>
      </trkpt>
      <trkpt lat="43.47915" lon="6.80796">
        <ele>161.4</ele>
        <time>2021-03-19T09:26:13Z</time>
      </trkpt>
      <trkpt lat="43.47866" lon="6.80825">
        <ele>160.8</ele>
        <time>2021-03-19T09:26:50Z</time>
      </trkpt>
      <trkpt lat="43.47851" lon="6.80845">
        <ele>160.6</ele>
        <time>2021-03-19T09:27:04Z</time>
      </trkpt>
      <trkpt lat="43.47808" lon="6.80886">
        <ele>159</ele>
        <time>2021-03-19T09:27:34Z</time>
      </trkpt>
      <trkpt lat="43.47762" lon="6.80895">
        <ele>159.8</ele>
        <time>2021-03-19T09:28:08Z</time>
      </trkpt>
      <trkpt lat="43.47761" lon="6.80896">
        <ele>159.8</ele>
        <time>2021-03-19T09:28:09Z</time>
      </trkpt>
      <trkpt lat="43.4776" lon="6.80898">
        <ele>159.6</ele>
        <time>2021-03-19T09:28:10Z</time>
      </trkpt>
      <trkpt lat="43.47755" lon="6.80905">
        <ele>159</ele>
        <time>2021-03-19T09:28:22Z</time>
      </trkpt>
      <trkpt lat="43.47756" lon="6.80915">
        <ele>159.6</ele>
        <time>2021-03-19T09:30:20Z</time>
      </trkpt>
      <trkpt lat="43.47756" lon="6.80917">
        <ele>159.6</ele>
        <time>2021-03-19T09:30:21Z</time>
      </trkpt>
      <trkpt lat="43.47756" lon="6.80919">
        <ele>159.4</ele>
        <time>2021-03-19T09:30:22Z</time>
      </trkpt>
      <trkpt lat="43.47756" lon="6.80921">
        <ele>159.2</ele>
        <time>2021-03-19T09:30:23Z</time>
      </trkpt>
      <trkpt lat="43.47756" lon="6.80923">
        <ele>159</ele>
        <time>2021-03-19T09:30:24Z</time>
      </trkpt>
      <trkpt lat="43.47757" lon="6.80925">
        <ele>158.8</ele>
        <time>2021-03-19T09:30:25Z</time>
      </trkpt>
      <trkpt lat="43.47757" lon="6.80927">
        <ele>158.8</ele>
        <time>2021-03-19T09:30:26Z</time>
      </trkpt>
      <trkpt lat="43.47757" lon="6.80929">
        <ele>158.8</ele>
        <time>2021-03-19T09:30:27Z</time>
      </trkpt>
      <trkpt lat="43.47747" lon="6.80991">
        <ele>155.8</ele>
        <time>2021-03-19T09:31:01Z</time>
      </trkpt>
      <trkpt lat="43.47724" lon="6.81043">
        <ele>152.6</ele>
        <time>2021-03-19T09:31:34Z</time>
      </trkpt>
      <trkpt lat="43.47704" lon="6.81065">
        <ele>151.2</ele>
        <time>2021-03-19T09:31:52Z</time>
      </trkpt>
      <trkpt lat="43.47703" lon="6.81066">
        <ele>151</ele>
        <time>2021-03-19T09:31:53Z</time>
      </trkpt>
      <trkpt lat="43.47702" lon="6.81068">
        <ele>150.8</ele>
        <time>2021-03-19T09:31:54Z</time>
      </trkpt>
      <trkpt lat="43.47701" lon="6.8107">
        <ele>150.8</ele>
        <time>2021-03-19T09:31:55Z</time>
      </trkpt>
      <trkpt lat="43.477" lon="6.81072">
        <ele>150.6</ele>
        <time>2021-03-19T09:31:56Z</time>
      </trkpt>
      <trkpt lat="43.47699" lon="6.81074">
        <ele>150.6</ele>
        <time>2021-03-19T09:31:57Z</time>
      </trkpt>
      <trkpt lat="43.47698" lon="6.81076">
        <ele>150.8</ele>
        <time>2021-03-19T09:31:58Z</time>
      </trkpt>
      <trkpt lat="43.47693" lon="6.81085">
        <ele>150.6</ele>
        <time>2021-03-19T09:32:03Z</time>
      </trkpt>
      <trkpt lat="43.47692" lon="6.81087">
        <ele>150.6</ele>
        <time>2021-03-19T09:32:04Z</time>
      </trkpt>
      <trkpt lat="43.47691" lon="6.81089">
        <ele>150.4</ele>
        <time>2021-03-19T09:32:05Z</time>
      </trkpt>
      <trkpt lat="43.4769" lon="6.81091">
        <ele>150.4</ele>
        <time>2021-03-19T09:32:06Z</time>
      </trkpt>
      <trkpt lat="43.47689" lon="6.81093">
        <ele>150.2</ele>
        <time>2021-03-19T09:32:07Z</time>
      </trkpt>
      <trkpt lat="43.47682" lon="6.81106">
        <ele>149.2</ele>
        <time>2021-03-19T09:32:15Z</time>
      </trkpt>
      <trkpt lat="43.47681" lon="6.81107">
        <ele>149</ele>
        <time>2021-03-19T09:32:16Z</time>
      </trkpt>
      <trkpt lat="43.47661" lon="6.81132">
        <ele>147.2</ele>
        <time>2021-03-19T09:32:34Z</time>
      </trkpt>
      <trkpt lat="43.4766" lon="6.81133">
        <ele>147</ele>
        <time>2021-03-19T09:32:35Z</time>
      </trkpt>
      <trkpt lat="43.47659" lon="6.81135">
        <ele>147</ele>
        <time>2021-03-19T09:32:36Z</time>
      </trkpt>
      <trkpt lat="43.47657" lon="6.81136">
        <ele>146.8</ele>
        <time>2021-03-19T09:32:37Z</time>
      </trkpt>
      <trkpt lat="43.47656" lon="6.81137">
        <ele>146.6</ele>
        <time>2021-03-19T09:32:38Z</time>
      </trkpt>
      <trkpt lat="43.47655" lon="6.81139">
        <ele>146.6</ele>
        <time>2021-03-19T09:32:39Z</time>
      </trkpt>
      <trkpt lat="43.47654" lon="6.8114">
        <ele>146.4</ele>
        <time>2021-03-19T09:32:40Z</time>
      </trkpt>
      <trkpt lat="43.47653" lon="6.81141">
        <ele>146.4</ele>
        <time>2021-03-19T09:32:41Z</time>
      </trkpt>
      <trkpt lat="43.47652" lon="6.81142">
        <ele>146.4</ele>
        <time>2021-03-19T09:32:42Z</time>
      </trkpt>
      <trkpt lat="43.47651" lon="6.81144">
        <ele>146.4</ele>
        <time>2021-03-19T09:32:43Z</time>
      </trkpt>
      <trkpt lat="43.4765" lon="6.81145">
        <ele>146.2</ele>
        <time>2021-03-19T09:32:44Z</time>
      </trkpt>
      <trkpt lat="43.47649" lon="6.81146">
        <ele>146.2</ele>
        <time>2021-03-19T09:32:45Z</time>
      </trkpt>
      <trkpt lat="43.47648" lon="6.81148">
        <ele>146</ele>
        <time>2021-03-19T09:32:46Z</time>
      </trkpt>
      <trkpt lat="43.47628" lon="6.81163">
        <ele>144.6</ele>
        <time>2021-03-19T09:33:00Z</time>
      </trkpt>
      <trkpt lat="43.47606" lon="6.81202">
        <ele>141.6</ele>
        <time>2021-03-19T09:33:23Z</time>
      </trkpt>
      <trkpt lat="43.47601" lon="6.81217">
        <ele>141.2</ele>
        <time>2021-03-19T09:33:32Z</time>
      </trkpt>
      <trkpt lat="43.476" lon="6.81219">
        <ele>141.2</ele>
        <time>2021-03-19T09:33:33Z</time>
      </trkpt>
      <trkpt lat="43.476" lon="6.8122">
        <ele>141.2</ele>
        <time>2021-03-19T09:33:34Z</time>
      </trkpt>
      <trkpt lat="43.47599" lon="6.81222">
        <ele>141</ele>
        <time>2021-03-19T09:33:35Z</time>
      </trkpt>
      <trkpt lat="43.47598" lon="6.81224">
        <ele>141</ele>
        <time>2021-03-19T09:33:36Z</time>
      </trkpt>
      <trkpt lat="43.47597" lon="6.81226">
        <ele>141</ele>
        <time>2021-03-19T09:33:37Z</time>
      </trkpt>
      <trkpt lat="43.47597" lon="6.81228">
        <ele>141</ele>
        <time>2021-03-19T09:33:38Z</time>
      </trkpt>
      <trkpt lat="43.47596" lon="6.81229">
        <ele>141</ele>
        <time>2021-03-19T09:33:39Z</time>
      </trkpt>
      <trkpt lat="43.47596" lon="6.81231">
        <ele>140.8</ele>
        <time>2021-03-19T09:33:40Z</time>
      </trkpt>
      <trkpt lat="43.47594" lon="6.81234">
        <ele>141</ele>
        <time>2021-03-19T09:33:42Z</time>
      </trkpt>
      <trkpt lat="43.47593" lon="6.81236">
        <ele>140.8</ele>
        <time>2021-03-19T09:33:43Z</time>
      </trkpt>
      <trkpt lat="43.47593" lon="6.81238">
        <ele>140.8</ele>
        <time>2021-03-19T09:33:44Z</time>
      </trkpt>
      <trkpt lat="43.47587" lon="6.81251">
        <ele>140</ele>
        <time>2021-03-19T09:33:51Z</time>
      </trkpt>
      <trkpt lat="43.47586" lon="6.81253">
        <ele>139.8</ele>
        <time>2021-03-19T09:33:52Z</time>
      </trkpt>
      <trkpt lat="43.47585" lon="6.81254">
        <ele>139.8</ele>
        <time>2021-03-19T09:33:53Z</time>
      </trkpt>
      <trkpt lat="43.47584" lon="6.81256">
        <ele>139.8</ele>
        <time>2021-03-19T09:33:54Z</time>
      </trkpt>
      <trkpt lat="43.47583" lon="6.81257">
        <ele>139.8</ele>
        <time>2021-03-19T09:33:55Z</time>
      </trkpt>
      <trkpt lat="43.47583" lon="6.81258">
        <ele>139.6</ele>
        <time>2021-03-19T09:33:56Z</time>
      </trkpt>
      <trkpt lat="43.47582" lon="6.8126">
        <ele>139.6</ele>
        <time>2021-03-19T09:33:57Z</time>
      </trkpt>
      <trkpt lat="43.47582" lon="6.81261">
        <ele>139.4</ele>
        <time>2021-03-19T09:33:58Z</time>
      </trkpt>
      <trkpt lat="43.47581" lon="6.81263">
        <ele>139.4</ele>
        <time>2021-03-19T09:33:59Z</time>
      </trkpt>
      <trkpt lat="43.47581" lon="6.81265">
        <ele>139.2</ele>
        <time>2021-03-19T09:34:00Z</time>
      </trkpt>
      <trkpt lat="43.4758" lon="6.81267">
        <ele>139</ele>
        <time>2021-03-19T09:34:01Z</time>
      </trkpt>
      <trkpt lat="43.47579" lon="6.8127">
        <ele>139</ele>
        <time>2021-03-19T09:34:02Z</time>
      </trkpt>
      <trkpt lat="43.47579" lon="6.81272">
        <ele>138.8</ele>
        <time>2021-03-19T09:34:03Z</time>
      </trkpt>
      <trkpt lat="43.47578" lon="6.81275">
        <ele>138.8</ele>
        <time>2021-03-19T09:34:04Z</time>
      </trkpt>
      <trkpt lat="43.47578" lon="6.81278">
        <ele>138.6</ele>
        <time>2021-03-19T09:34:05Z</time>
      </trkpt>
      <trkpt lat="43.47577" lon="6.8128">
        <ele>138.4</ele>
        <time>2021-03-19T09:34:06Z</time>
      </trkpt>
      <trkpt lat="43.47577" lon="6.81282">
        <ele>138.4</ele>
        <time>2021-03-19T09:34:07Z</time>
      </trkpt>
      <trkpt lat="43.47554" lon="6.81331">
        <ele>135.8</ele>
        <time>2021-03-19T09:34:31Z</time>
      </trkpt>
      <trkpt lat="43.47549" lon="6.81351">
        <ele>134.8</ele>
        <time>2021-03-19T09:34:42Z</time>
      </trkpt>
      <trkpt lat="43.47548" lon="6.81354">
        <ele>134.6</ele>
        <time>2021-03-19T09:34:43Z</time>
      </trkpt>
      <trkpt lat="43.47547" lon="6.81356">
        <ele>134.4</ele>
        <time>2021-03-19T09:34:44Z</time>
      </trkpt>
      <trkpt lat="43.47546" lon="6.81358">
        <ele>134.4</ele>
        <time>2021-03-19T09:34:45Z</time>
      </trkpt>
      <trkpt lat="43.47546" lon="6.8136">
        <ele>134.2</ele>
        <time>2021-03-19T09:34:46Z</time>
      </trkpt>
      <trkpt lat="43.47522" lon="6.81416">
        <ele>131.2</ele>
        <time>2021-03-19T09:35:16Z</time>
      </trkpt>
      <trkpt lat="43.47502" lon="6.81458">
        <ele>128.2</ele>
        <time>2021-03-19T09:35:38Z</time>
      </trkpt>
      <trkpt lat="43.47501" lon="6.81461">
        <ele>128</ele>
        <time>2021-03-19T09:35:40Z</time>
      </trkpt>
      <trkpt lat="43.47466" lon="6.81526">
        <ele>125</ele>
        <time>2021-03-19T09:36:14Z</time>
      </trkpt>
      <trkpt lat="43.47426" lon="6.81564">
        <ele>121.6</ele>
        <time>2021-03-19T09:36:47Z</time>
      </trkpt>
      <trkpt lat="43.47395" lon="6.81582">
        <ele>120.6</ele>
        <time>2021-03-19T09:37:07Z</time>
      </trkpt>
      <trkpt lat="43.47393" lon="6.81581">
        <ele>120.4</ele>
        <time>2021-03-19T09:37:08Z</time>
      </trkpt>
      <trkpt lat="43.47391" lon="6.8158">
        <ele>120</ele>
        <time>2021-03-19T09:37:09Z</time>
      </trkpt>
      <trkpt lat="43.4739" lon="6.8158">
        <ele>119.8</ele>
        <time>2021-03-19T09:37:10Z</time>
      </trkpt>
      <trkpt lat="43.47389" lon="6.81579">
        <ele>119.8</ele>
        <time>2021-03-19T09:37:11Z</time>
      </trkpt>
      <trkpt lat="43.47388" lon="6.81579">
        <ele>119.8</ele>
        <time>2021-03-19T09:37:12Z</time>
      </trkpt>
      <trkpt lat="43.47386" lon="6.81579">
        <ele>120</ele>
        <time>2021-03-19T09:37:13Z</time>
      </trkpt>
      <trkpt lat="43.47385" lon="6.81578">
        <ele>120.4</ele>
        <time>2021-03-19T09:37:14Z</time>
      </trkpt>
      <trkpt lat="43.47384" lon="6.81578">
        <ele>120.4</ele>
        <time>2021-03-19T09:37:15Z</time>
      </trkpt>
      <trkpt lat="43.47383" lon="6.81578">
        <ele>120.6</ele>
        <time>2021-03-19T09:37:16Z</time>
      </trkpt>
      <trkpt lat="43.47382" lon="6.81579">
        <ele>120.6</ele>
        <time>2021-03-19T09:37:17Z</time>
      </trkpt>
      <trkpt lat="43.47367" lon="6.81601">
        <ele>120</ele>
        <time>2021-03-19T09:37:33Z</time>
      </trkpt>
      <trkpt lat="43.47367" lon="6.81602">
        <ele>120</ele>
        <time>2021-03-19T09:37:34Z</time>
      </trkpt>
      <trkpt lat="43.47367" lon="6.81604">
        <ele>119.8</ele>
        <time>2021-03-19T09:37:35Z</time>
      </trkpt>
      <trkpt lat="43.47366" lon="6.81606">
        <ele>119.8</ele>
        <time>2021-03-19T09:37:36Z</time>
      </trkpt>
      <trkpt lat="43.47366" lon="6.81608">
        <ele>119.8</ele>
        <time>2021-03-19T09:37:37Z</time>
      </trkpt>
      <trkpt lat="43.4735" lon="6.81641">
        <ele>116.6</ele>
        <time>2021-03-19T09:37:55Z</time>
      </trkpt>
      <trkpt lat="43.47328" lon="6.81705">
        <ele>114.8</ele>
        <time>2021-03-19T09:38:26Z</time>
      </trkpt>
      <trkpt lat="43.47316" lon="6.81751">
        <ele>114.8</ele>
        <time>2021-03-19T09:38:49Z</time>
      </trkpt>
      <trkpt lat="43.47315" lon="6.81754">
        <ele>114.8</ele>
        <time>2021-03-19T09:38:50Z</time>
      </trkpt>
      <trkpt lat="43.47315" lon="6.81756">
        <ele>114.8</ele>
        <time>2021-03-19T09:38:51Z</time>
      </trkpt>
      <trkpt lat="43.47314" lon="6.81757">
        <ele>114.8</ele>
        <time>2021-03-19T09:38:52Z</time>
      </trkpt>
      <trkpt lat="43.47313" lon="6.81759">
        <ele>114.8</ele>
        <time>2021-03-19T09:38:53Z</time>
      </trkpt>
      <trkpt lat="43.47307" lon="6.81774">
        <ele>114.6</ele>
        <time>2021-03-19T09:39:00Z</time>
      </trkpt>
      <trkpt lat="43.47306" lon="6.81776">
        <ele>114.6</ele>
        <time>2021-03-19T09:39:01Z</time>
      </trkpt>
      <trkpt lat="43.47306" lon="6.81778">
        <ele>114.8</ele>
        <time>2021-03-19T09:39:02Z</time>
      </trkpt>
      <trkpt lat="43.47305" lon="6.8178">
        <ele>114.8</ele>
        <time>2021-03-19T09:39:03Z</time>
      </trkpt>
      <trkpt lat="43.47305" lon="6.81782">
        <ele>114.8</ele>
        <time>2021-03-19T09:39:04Z</time>
      </trkpt>
      <trkpt lat="43.47304" lon="6.81784">
        <ele>114.8</ele>
        <time>2021-03-19T09:39:05Z</time>
      </trkpt>
      <trkpt lat="43.47297" lon="6.81807">
        <ele>115.2</ele>
        <time>2021-03-19T09:39:16Z</time>
      </trkpt>
      <trkpt lat="43.47297" lon="6.81809">
        <ele>115.2</ele>
        <time>2021-03-19T09:39:17Z</time>
      </trkpt>
      <trkpt lat="43.4727" lon="6.81849">
        <ele>116.6</ele>
        <time>2021-03-19T09:39:39Z</time>
      </trkpt>
      <trkpt lat="43.47269" lon="6.81852">
        <ele>117</ele>
        <time>2021-03-19T09:39:40Z</time>
      </trkpt>
      <trkpt lat="43.47268" lon="6.81854">
        <ele>117.2</ele>
        <time>2021-03-19T09:39:41Z</time>
      </trkpt>
      <trkpt lat="43.47257" lon="6.81886">
        <ele>120.2</ele>
        <time>2021-03-19T09:39:59Z</time>
      </trkpt>
      <trkpt lat="43.47249" lon="6.81909">
        <ele>122.2</ele>
        <time>2021-03-19T09:40:12Z</time>
      </trkpt>
      <trkpt lat="43.47248" lon="6.81911">
        <ele>122.4</ele>
        <time>2021-03-19T09:40:13Z</time>
      </trkpt>
      <trkpt lat="43.47248" lon="6.81913">
        <ele>122.8</ele>
        <time>2021-03-19T09:40:14Z</time>
      </trkpt>
      <trkpt lat="43.47247" lon="6.81916">
        <ele>122.8</ele>
        <time>2021-03-19T09:40:15Z</time>
      </trkpt>
      <trkpt lat="43.47247" lon="6.81918">
        <ele>123</ele>
        <time>2021-03-19T09:40:16Z</time>
      </trkpt>
      <trkpt lat="43.47247" lon="6.8192">
        <ele>123.2</ele>
        <time>2021-03-19T09:40:17Z</time>
      </trkpt>
      <trkpt lat="43.47247" lon="6.81922">
        <ele>123.2</ele>
        <time>2021-03-19T09:40:18Z</time>
      </trkpt>
      <trkpt lat="43.47246" lon="6.81923">
        <ele>123.4</ele>
        <time>2021-03-19T09:40:19Z</time>
      </trkpt>
      <trkpt lat="43.47246" lon="6.81925">
        <ele>123.4</ele>
        <time>2021-03-19T09:40:20Z</time>
      </trkpt>
      <trkpt lat="43.47245" lon="6.81927">
        <ele>123.6</ele>
        <time>2021-03-19T09:40:21Z</time>
      </trkpt>
      <trkpt lat="43.47245" lon="6.81928">
        <ele>123.8</ele>
        <time>2021-03-19T09:40:22Z</time>
      </trkpt>
      <trkpt lat="43.4723" lon="6.81959">
        <ele>127</ele>
        <time>2021-03-19T09:40:41Z</time>
      </trkpt>
      <trkpt lat="43.47228" lon="6.81964">
        <ele>127.2</ele>
        <time>2021-03-19T09:40:44Z</time>
      </trkpt>
      <trkpt lat="43.47227" lon="6.81966">
        <ele>127.4</ele>
        <time>2021-03-19T09:40:45Z</time>
      </trkpt>
      <trkpt lat="43.47226" lon="6.81967">
        <ele>128</ele>
        <time>2021-03-19T09:40:46Z</time>
      </trkpt>
      <trkpt lat="43.47225" lon="6.81969">
        <ele>128.2</ele>
        <time>2021-03-19T09:40:47Z</time>
      </trkpt>
      <trkpt lat="43.47224" lon="6.8197">
        <ele>128.4</ele>
        <time>2021-03-19T09:40:48Z</time>
      </trkpt>
      <trkpt lat="43.47223" lon="6.81972">
        <ele>128.6</ele>
        <time>2021-03-19T09:40:49Z</time>
      </trkpt>
      <trkpt lat="43.4722" lon="6.81978">
        <ele>128.6</ele>
        <time>2021-03-19T09:40:52Z</time>
      </trkpt>
      <trkpt lat="43.4722" lon="6.8198">
        <ele>128.4</ele>
        <time>2021-03-19T09:40:53Z</time>
      </trkpt>
      <trkpt lat="43.47219" lon="6.81982">
        <ele>128.2</ele>
        <time>2021-03-19T09:40:54Z</time>
      </trkpt>
      <trkpt lat="43.47218" lon="6.81984">
        <ele>128</ele>
        <time>2021-03-19T09:40:55Z</time>
      </trkpt>
      <trkpt lat="43.47217" lon="6.81987">
        <ele>127.6</ele>
        <time>2021-03-19T09:40:56Z</time>
      </trkpt>
      <trkpt lat="43.47216" lon="6.81989">
        <ele>127.4</ele>
        <time>2021-03-19T09:40:57Z</time>
      </trkpt>
      <trkpt lat="43.47216" lon="6.81991">
        <ele>127.2</ele>
        <time>2021-03-19T09:40:58Z</time>
      </trkpt>
      <trkpt lat="43.47215" lon="6.81993">
        <ele>127.2</ele>
        <time>2021-03-19T09:40:59Z</time>
      </trkpt>
      <trkpt lat="43.47209" lon="6.82011">
        <ele>125</ele>
        <time>2021-03-19T09:41:08Z</time>
      </trkpt>
      <trkpt lat="43.47208" lon="6.82013">
        <ele>124.8</ele>
        <time>2021-03-19T09:41:09Z</time>
      </trkpt>
      <trkpt lat="43.47208" lon="6.82015">
        <ele>124.8</ele>
        <time>2021-03-19T09:41:10Z</time>
      </trkpt>
      <trkpt lat="43.47208" lon="6.82017">
        <ele>124.6</ele>
        <time>2021-03-19T09:41:11Z</time>
      </trkpt>
      <trkpt lat="43.47207" lon="6.82018">
        <ele>124.6</ele>
        <time>2021-03-19T09:41:12Z</time>
      </trkpt>
      <trkpt lat="43.47206" lon="6.8202">
        <ele>124.4</ele>
        <time>2021-03-19T09:41:13Z</time>
      </trkpt>
      <trkpt lat="43.47205" lon="6.82022">
        <ele>124.2</ele>
        <time>2021-03-19T09:41:14Z</time>
      </trkpt>
      <trkpt lat="43.47189" lon="6.82047">
        <ele>121.2</ele>
        <time>2021-03-19T09:41:31Z</time>
      </trkpt>
      <trkpt lat="43.47173" lon="6.82068">
        <ele>119.2</ele>
        <time>2021-03-19T09:41:46Z</time>
      </trkpt>
      <trkpt lat="43.47173" lon="6.8207">
        <ele>119.2</ele>
        <time>2021-03-19T09:41:47Z</time>
      </trkpt>
      <trkpt lat="43.47173" lon="6.82071">
        <ele>119</ele>
        <time>2021-03-19T09:41:48Z</time>
      </trkpt>
      <trkpt lat="43.47172" lon="6.82073">
        <ele>118.8</ele>
        <time>2021-03-19T09:41:49Z</time>
      </trkpt>
      <trkpt lat="43.47171" lon="6.82075">
        <ele>118.4</ele>
        <time>2021-03-19T09:41:50Z</time>
      </trkpt>
      <trkpt lat="43.4717" lon="6.82077">
        <ele>118.2</ele>
        <time>2021-03-19T09:41:51Z</time>
      </trkpt>
      <trkpt lat="43.4717" lon="6.82079">
        <ele>118</ele>
        <time>2021-03-19T09:41:52Z</time>
      </trkpt>
      <trkpt lat="43.47169" lon="6.8208">
        <ele>117.8</ele>
        <time>2021-03-19T09:41:53Z</time>
      </trkpt>
      <trkpt lat="43.47169" lon="6.82082">
        <ele>117.8</ele>
        <time>2021-03-19T09:41:54Z</time>
      </trkpt>
      <trkpt lat="43.47169" lon="6.82085">
        <ele>117.6</ele>
        <time>2021-03-19T09:41:55Z</time>
      </trkpt>
      <trkpt lat="43.47169" lon="6.82087">
        <ele>117.4</ele>
        <time>2021-03-19T09:41:56Z</time>
      </trkpt>
      <trkpt lat="43.47169" lon="6.82089">
        <ele>117.2</ele>
        <time>2021-03-19T09:41:57Z</time>
      </trkpt>
      <trkpt lat="43.47169" lon="6.8209">
        <ele>117</ele>
        <time>2021-03-19T09:41:58Z</time>
      </trkpt>
      <trkpt lat="43.47157" lon="6.8213">
        <ele>113.8</ele>
        <time>2021-03-19T09:42:17Z</time>
      </trkpt>
      <trkpt lat="43.47142" lon="6.82157">
        <ele>111.2</ele>
        <time>2021-03-19T09:42:33Z</time>
      </trkpt>
      <trkpt lat="43.47153" lon="6.82183">
        <ele>108</ele>
        <time>2021-03-19T09:42:48Z</time>
      </trkpt>
      <trkpt lat="43.47147" lon="6.82215">
        <ele>104.8</ele>
        <time>2021-03-19T09:43:07Z</time>
      </trkpt>
      <trkpt lat="43.47146" lon="6.82216">
        <ele>104.6</ele>
        <time>2021-03-19T09:43:08Z</time>
      </trkpt>
      <trkpt lat="43.47145" lon="6.82218">
        <ele>104.4</ele>
        <time>2021-03-19T09:43:09Z</time>
      </trkpt>
      <trkpt lat="43.47143" lon="6.82219">
        <ele>104.2</ele>
        <time>2021-03-19T09:43:10Z</time>
      </trkpt>
      <trkpt lat="43.47142" lon="6.8222">
        <ele>104</ele>
        <time>2021-03-19T09:43:11Z</time>
      </trkpt>
      <trkpt lat="43.4714" lon="6.82221">
        <ele>103.6</ele>
        <time>2021-03-19T09:43:12Z</time>
      </trkpt>
      <trkpt lat="43.47132" lon="6.82223">
        <ele>102.8</ele>
        <time>2021-03-19T09:43:17Z</time>
      </trkpt>
      <trkpt lat="43.47093" lon="6.82249">
        <ele>101.6</ele>
        <time>2021-03-19T09:43:51Z</time>
      </trkpt>
      <trkpt lat="43.47091" lon="6.82255">
        <ele>101.8</ele>
        <time>2021-03-19T09:43:54Z</time>
      </trkpt>
      <trkpt lat="43.4709" lon="6.82256">
        <ele>101.8</ele>
        <time>2021-03-19T09:43:55Z</time>
      </trkpt>
      <trkpt lat="43.47088" lon="6.82256">
        <ele>101.6</ele>
        <time>2021-03-19T09:43:56Z</time>
      </trkpt>
      <trkpt lat="43.47088" lon="6.82255">
        <ele>101.8</ele>
        <time>2021-03-19T09:43:57Z</time>
      </trkpt>
      <trkpt lat="43.47089" lon="6.82254">
        <ele>102</ele>
        <time>2021-03-19T09:43:58Z</time>
      </trkpt>
      <trkpt lat="43.4709" lon="6.82253">
        <ele>102</ele>
        <time>2021-03-19T09:43:59Z</time>
      </trkpt>
      <trkpt lat="43.47091" lon="6.82251">
        <ele>102</ele>
        <time>2021-03-19T09:44:00Z</time>
      </trkpt>
      <trkpt lat="43.47099" lon="6.82241">
        <ele>101.2</ele>
        <time>2021-03-19T09:44:09Z</time>
      </trkpt>
      <trkpt lat="43.47097" lon="6.82245">
        <ele>100.8</ele>
        <time>2021-03-19T09:44:14Z</time>
      </trkpt>
      <trkpt lat="43.47097" lon="6.82246">
        <ele>101.2</ele>
        <time>2021-03-19T09:44:15Z</time>
      </trkpt>
      <trkpt lat="43.47097" lon="6.82248">
        <ele>102.2</ele>
        <time>2021-03-19T09:44:21Z</time>
      </trkpt>
      <trkpt lat="43.47093" lon="6.82234">
        <ele>100.6</ele>
        <time>2021-03-19T09:45:36Z</time>
      </trkpt>
      <trkpt lat="43.47092" lon="6.82233">
        <ele>100.6</ele>
        <time>2021-03-19T09:45:37Z</time>
      </trkpt>
      <trkpt lat="43.47091" lon="6.82233">
        <ele>100.6</ele>
        <time>2021-03-19T09:45:38Z</time>
      </trkpt>
      <trkpt lat="43.47073" lon="6.82214">
        <ele>101.8</ele>
        <time>2021-03-19T09:45:53Z</time>
      </trkpt>
      <trkpt lat="43.47072" lon="6.82212">
        <ele>101.8</ele>
        <time>2021-03-19T09:45:54Z</time>
      </trkpt>
      <trkpt lat="43.47044" lon="6.82154">
        <ele>102</ele>
        <time>2021-03-19T09:46:24Z</time>
      </trkpt>
      <trkpt lat="43.47038" lon="6.82145">
        <ele>102</ele>
        <time>2021-03-19T09:46:29Z</time>
      </trkpt>
      <trkpt lat="43.47012" lon="6.82098">
        <ele>101.8</ele>
        <time>2021-03-19T09:46:54Z</time>
      </trkpt>
      <trkpt lat="43.47012" lon="6.82097">
        <ele>101.8</ele>
        <time>2021-03-19T09:46:55Z</time>
      </trkpt>
      <trkpt lat="43.47011" lon="6.82095">
        <ele>101.8</ele>
        <time>2021-03-19T09:46:56Z</time>
      </trkpt>
      <trkpt lat="43.4701" lon="6.82094">
        <ele>101.8</ele>
        <time>2021-03-19T09:46:57Z</time>
      </trkpt>
      <trkpt lat="43.47009" lon="6.82092">
        <ele>101.8</ele>
        <time>2021-03-19T09:46:58Z</time>
      </trkpt>
      <trkpt lat="43.47008" lon="6.82089">
        <ele>101.6</ele>
        <time>2021-03-19T09:46:59Z</time>
      </trkpt>
      <trkpt lat="43.47007" lon="6.82088">
        <ele>101.4</ele>
        <time>2021-03-19T09:47:00Z</time>
      </trkpt>
      <trkpt lat="43.46973" lon="6.82037">
        <ele>101</ele>
        <time>2021-03-19T09:47:32Z</time>
      </trkpt>
      <trkpt lat="43.46922" lon="6.82044">
        <ele>100.8</ele>
        <time>2021-03-19T09:48:06Z</time>
      </trkpt>
      <trkpt lat="43.46884" lon="6.82093">
        <ele>100.8</ele>
        <time>2021-03-19T09:48:38Z</time>
      </trkpt>
      <trkpt lat="43.46837" lon="6.82062">
        <ele>101</ele>
        <time>2021-03-19T09:49:09Z</time>
      </trkpt>
      <trkpt lat="43.46807" lon="6.82011">
        <ele>104</ele>
        <time>2021-03-19T09:49:35Z</time>
      </trkpt>
      <trkpt lat="43.46803" lon="6.81972">
        <ele>107.2</ele>
        <time>2021-03-19T09:49:52Z</time>
      </trkpt>
      <trkpt lat="43.4677" lon="6.81975">
        <ele>110.2</ele>
        <time>2021-03-19T09:50:15Z</time>
      </trkpt>
      <trkpt lat="43.4674" lon="6.81968">
        <ele>111.2</ele>
        <time>2021-03-19T09:50:33Z</time>
      </trkpt>
      <trkpt lat="43.46739" lon="6.81966">
        <ele>111</ele>
        <time>2021-03-19T09:50:34Z</time>
      </trkpt>
      <trkpt lat="43.46738" lon="6.81964">
        <ele>111.2</ele>
        <time>2021-03-19T09:50:35Z</time>
      </trkpt>
      <trkpt lat="43.46721" lon="6.81944">
        <ele>113.4</ele>
        <time>2021-03-19T09:50:49Z</time>
      </trkpt>
      <trkpt lat="43.4672" lon="6.81942">
        <ele>113.4</ele>
        <time>2021-03-19T09:50:50Z</time>
      </trkpt>
      <trkpt lat="43.46717" lon="6.81937">
        <ele>113.8</ele>
        <time>2021-03-19T09:50:53Z</time>
      </trkpt>
      <trkpt lat="43.46716" lon="6.81935">
        <ele>113.8</ele>
        <time>2021-03-19T09:50:54Z</time>
      </trkpt>
      <trkpt lat="43.46715" lon="6.81933">
        <ele>113.6</ele>
        <time>2021-03-19T09:50:55Z</time>
      </trkpt>
      <trkpt lat="43.46714" lon="6.81931">
        <ele>113.6</ele>
        <time>2021-03-19T09:50:56Z</time>
      </trkpt>
      <trkpt lat="43.46713" lon="6.81929">
        <ele>113.8</ele>
        <time>2021-03-19T09:50:57Z</time>
      </trkpt>
      <trkpt lat="43.46712" lon="6.81927">
        <ele>113.8</ele>
        <time>2021-03-19T09:50:58Z</time>
      </trkpt>
      <trkpt lat="43.46683" lon="6.81868">
        <ele>115.4</ele>
        <time>2021-03-19T09:51:29Z</time>
      </trkpt>
      <trkpt lat="43.46631" lon="6.81843">
        <ele>115.6</ele>
        <time>2021-03-19T09:52:01Z</time>
      </trkpt>
      <trkpt lat="43.46588" lon="6.81833">
        <ele>117</ele>
        <time>2021-03-19T09:52:27Z</time>
      </trkpt>
      <trkpt lat="43.46544" lon="6.81882">
        <ele>118.6</ele>
        <time>2021-03-19T09:53:00Z</time>
      </trkpt>
      <trkpt lat="43.46484" lon="6.81887">
        <ele>120</ele>
        <time>2021-03-19T09:53:33Z</time>
      </trkpt>
      <trkpt lat="43.46474" lon="6.81893">
        <ele>120.4</ele>
        <time>2021-03-19T09:53:39Z</time>
      </trkpt>
      <trkpt lat="43.46426" lon="6.81909">
        <ele>123.4</ele>
        <time>2021-03-19T09:54:05Z</time>
      </trkpt>
      <trkpt lat="43.46416" lon="6.81908">
        <ele>124.2</ele>
        <time>2021-03-19T09:54:10Z</time>
      </trkpt>
      <trkpt lat="43.46414" lon="6.81908">
        <ele>124.4</ele>
        <time>2021-03-19T09:54:11Z</time>
      </trkpt>
      <trkpt lat="43.46412" lon="6.81908">
        <ele>124.4</ele>
        <time>2021-03-19T09:54:12Z</time>
      </trkpt>
      <trkpt lat="43.46397" lon="6.81911">
        <ele>126.6</ele>
        <time>2021-03-19T09:54:21Z</time>
      </trkpt>
      <trkpt lat="43.46395" lon="6.81912">
        <ele>126.8</ele>
        <time>2021-03-19T09:54:22Z</time>
      </trkpt>
      <trkpt lat="43.46344" lon="6.81939">
        <ele>127.4</ele>
        <time>2021-03-19T09:54:54Z</time>
      </trkpt>
      <trkpt lat="43.46322" lon="6.81945">
        <ele>125.6</ele>
        <time>2021-03-19T09:55:06Z</time>
      </trkpt>
      <trkpt lat="43.46303" lon="6.81949">
        <ele>124.2</ele>
        <time>2021-03-19T09:55:15Z</time>
      </trkpt>
      <trkpt lat="43.46261" lon="6.81958">
        <ele>121.2</ele>
        <time>2021-03-19T09:55:38Z</time>
      </trkpt>
      <trkpt lat="43.46244" lon="6.81963">
        <ele>118.2</ele>
        <time>2021-03-19T09:55:48Z</time>
      </trkpt>
      <trkpt lat="43.46225" lon="6.81969">
        <ele>115.2</ele>
        <time>2021-03-19T09:55:59Z</time>
      </trkpt>
      <trkpt lat="43.46223" lon="6.81969">
        <ele>115</ele>
        <time>2021-03-19T09:56:00Z</time>
      </trkpt>
      <trkpt lat="43.46222" lon="6.81968">
        <ele>114.6</ele>
        <time>2021-03-19T09:56:01Z</time>
      </trkpt>
      <trkpt lat="43.4622" lon="6.81968">
        <ele>114.6</ele>
        <time>2021-03-19T09:56:02Z</time>
      </trkpt>
      <trkpt lat="43.46218" lon="6.81968">
        <ele>114.6</ele>
        <time>2021-03-19T09:56:03Z</time>
      </trkpt>
      <trkpt lat="43.46216" lon="6.81969">
        <ele>114.4</ele>
        <time>2021-03-19T09:56:04Z</time>
      </trkpt>
      <trkpt lat="43.46204" lon="6.81971">
        <ele>113.2</ele>
        <time>2021-03-19T09:56:10Z</time>
      </trkpt>
      <trkpt lat="43.46202" lon="6.81971">
        <ele>113.2</ele>
        <time>2021-03-19T09:56:11Z</time>
      </trkpt>
      <trkpt lat="43.462" lon="6.81971">
        <ele>113.2</ele>
        <time>2021-03-19T09:56:12Z</time>
      </trkpt>
      <trkpt lat="43.46199" lon="6.8197">
        <ele>113</ele>
        <time>2021-03-19T09:56:13Z</time>
      </trkpt>
      <trkpt lat="43.46197" lon="6.81968">
        <ele>112.6</ele>
        <time>2021-03-19T09:56:14Z</time>
      </trkpt>
      <trkpt lat="43.46195" lon="6.81967">
        <ele>112.4</ele>
        <time>2021-03-19T09:56:15Z</time>
      </trkpt>
      <trkpt lat="43.46193" lon="6.81965">
        <ele>112.4</ele>
        <time>2021-03-19T09:56:16Z</time>
      </trkpt>
      <trkpt lat="43.46192" lon="6.81964">
        <ele>112</ele>
        <time>2021-03-19T09:56:17Z</time>
      </trkpt>
      <trkpt lat="43.46177" lon="6.81968">
        <ele>110.4</ele>
        <time>2021-03-19T09:56:26Z</time>
      </trkpt>
      <trkpt lat="43.46177" lon="6.81984">
        <ele>110.6</ele>
        <time>2021-03-19T09:56:36Z</time>
      </trkpt>
      <trkpt lat="43.46178" lon="6.81985">
        <ele>110.8</ele>
        <time>2021-03-19T09:56:37Z</time>
      </trkpt>
      <trkpt lat="43.46179" lon="6.81985">
        <ele>110.8</ele>
        <time>2021-03-19T09:56:38Z</time>
      </trkpt>
      <trkpt lat="43.4618" lon="6.81985">
        <ele>111</ele>
        <time>2021-03-19T09:56:39Z</time>
      </trkpt>
      <trkpt lat="43.46181" lon="6.81984">
        <ele>111.2</ele>
        <time>2021-03-19T09:56:40Z</time>
      </trkpt>
      <trkpt lat="43.46182" lon="6.81984">
        <ele>111.2</ele>
        <time>2021-03-19T09:56:41Z</time>
      </trkpt>
      <trkpt lat="43.46206" lon="6.81969">
        <ele>114.2</ele>
        <time>2021-03-19T09:57:03Z</time>
      </trkpt>
      <trkpt lat="43.46235" lon="6.8196">
        <ele>117.2</ele>
        <time>2021-03-19T09:57:25Z</time>
      </trkpt>
      <trkpt lat="43.46245" lon="6.81956">
        <ele>118.2</ele>
        <time>2021-03-19T09:57:38Z</time>
      </trkpt>
      <trkpt lat="43.46226" lon="6.81965">
        <ele>115.2</ele>
        <time>2021-03-19T09:57:53Z</time>
      </trkpt>
      <trkpt lat="43.46211" lon="6.8197">
        <ele>114.4</ele>
        <time>2021-03-19T09:58:02Z</time>
      </trkpt>
      <trkpt lat="43.46191" lon="6.81983">
        <ele>112.4</ele>
        <time>2021-03-19T09:58:17Z</time>
      </trkpt>
      <trkpt lat="43.46189" lon="6.81984">
        <ele>112.2</ele>
        <time>2021-03-19T09:58:18Z</time>
      </trkpt>
      <trkpt lat="43.46152" lon="6.82013">
        <ele>109</ele>
        <time>2021-03-19T09:58:50Z</time>
      </trkpt>
      <trkpt lat="43.46134" lon="6.82031">
        <ele>105.6</ele>
        <time>2021-03-19T09:59:08Z</time>
      </trkpt>
      <trkpt lat="43.46134" lon="6.82032">
        <ele>105.4</ele>
        <time>2021-03-19T09:59:09Z</time>
      </trkpt>
      <trkpt lat="43.46117" lon="6.82049">
        <ele>102.2</ele>
        <time>2021-03-19T09:59:28Z</time>
      </trkpt>
      <trkpt lat="43.46073" lon="6.82081">
        <ele>98.8</ele>
        <time>2021-03-19T10:00:07Z</time>
      </trkpt>
      <trkpt lat="43.4602" lon="6.8211">
        <ele>96.6</ele>
        <time>2021-03-19T10:00:41Z</time>
      </trkpt>
      <trkpt lat="43.4598" lon="6.8214">
        <ele>98.6</ele>
        <time>2021-03-19T10:01:11Z</time>
      </trkpt>
      <trkpt lat="43.45979" lon="6.82141">
        <ele>98.6</ele>
        <time>2021-03-19T10:01:12Z</time>
      </trkpt>
      <trkpt lat="43.45978" lon="6.82142">
        <ele>98.6</ele>
        <time>2021-03-19T10:01:13Z</time>
      </trkpt>
      <trkpt lat="43.45971" lon="6.82149">
        <ele>97.6</ele>
        <time>2021-03-19T10:01:19Z</time>
      </trkpt>
      <trkpt lat="43.4597" lon="6.8215">
        <ele>97.2</ele>
        <time>2021-03-19T10:01:20Z</time>
      </trkpt>
      <trkpt lat="43.45969" lon="6.82151">
        <ele>96.6</ele>
        <time>2021-03-19T10:01:21Z</time>
      </trkpt>
      <trkpt lat="43.45968" lon="6.82151">
        <ele>96.4</ele>
        <time>2021-03-19T10:01:22Z</time>
      </trkpt>
      <trkpt lat="43.45966" lon="6.82151">
        <ele>96.6</ele>
        <time>2021-03-19T10:01:23Z</time>
      </trkpt>
      <trkpt lat="43.45964" lon="6.82152">
        <ele>97</ele>
        <time>2021-03-19T10:01:24Z</time>
      </trkpt>
      <trkpt lat="43.45963" lon="6.82153">
        <ele>97.2</ele>
        <time>2021-03-19T10:01:25Z</time>
      </trkpt>
      <trkpt lat="43.4596" lon="6.82156">
        <ele>97.2</ele>
        <time>2021-03-19T10:01:27Z</time>
      </trkpt>
      <trkpt lat="43.45959" lon="6.82158">
        <ele>97</ele>
        <time>2021-03-19T10:01:28Z</time>
      </trkpt>
      <trkpt lat="43.45954" lon="6.82163">
        <ele>95.8</ele>
        <time>2021-03-19T10:01:31Z</time>
      </trkpt>
      <trkpt lat="43.45927" lon="6.82229">
        <ele>94</ele>
        <time>2021-03-19T10:02:04Z</time>
      </trkpt>
      <trkpt lat="43.45915" lon="6.82251">
        <ele>91</ele>
        <time>2021-03-19T10:02:16Z</time>
      </trkpt>
      <trkpt lat="43.45906" lon="6.82278">
        <ele>88</ele>
        <time>2021-03-19T10:02:29Z</time>
      </trkpt>
      <trkpt lat="43.45904" lon="6.82286">
        <ele>87.4</ele>
        <time>2021-03-19T10:02:33Z</time>
      </trkpt>
      <trkpt lat="43.45904" lon="6.82288">
        <ele>87.4</ele>
        <time>2021-03-19T10:02:34Z</time>
      </trkpt>
      <trkpt lat="43.45902" lon="6.8229">
        <ele>87.2</ele>
        <time>2021-03-19T10:02:35Z</time>
      </trkpt>
      <trkpt lat="43.45895" lon="6.823">
        <ele>87</ele>
        <time>2021-03-19T10:02:42Z</time>
      </trkpt>
      <trkpt lat="43.45894" lon="6.82301">
        <ele>87</ele>
        <time>2021-03-19T10:02:43Z</time>
      </trkpt>
      <trkpt lat="43.45843" lon="6.82327">
        <ele>87.2</ele>
        <time>2021-03-19T10:03:16Z</time>
      </trkpt>
      <trkpt lat="43.45821" lon="6.82337">
        <ele>84</ele>
        <time>2021-03-19T10:03:30Z</time>
      </trkpt>
      <trkpt lat="43.45799" lon="6.8234">
        <ele>80.4</ele>
        <time>2021-03-19T10:03:43Z</time>
      </trkpt>
      <trkpt lat="43.45782" lon="6.82343">
        <ele>77.2</ele>
        <time>2021-03-19T10:03:53Z</time>
      </trkpt>
      <trkpt lat="43.4576" lon="6.82348">
        <ele>74.4</ele>
        <time>2021-03-19T10:04:06Z</time>
      </trkpt>
      <trkpt lat="43.45759" lon="6.82349">
        <ele>74.6</ele>
        <time>2021-03-19T10:04:07Z</time>
      </trkpt>
      <trkpt lat="43.45757" lon="6.82349">
        <ele>74.4</ele>
        <time>2021-03-19T10:04:08Z</time>
      </trkpt>
      <trkpt lat="43.45756" lon="6.82349">
        <ele>74.2</ele>
        <time>2021-03-19T10:04:09Z</time>
      </trkpt>
      <trkpt lat="43.45754" lon="6.8235">
        <ele>74.2</ele>
        <time>2021-03-19T10:04:10Z</time>
      </trkpt>
      <trkpt lat="43.45746" lon="6.82355">
        <ele>72.4</ele>
        <time>2021-03-19T10:04:15Z</time>
      </trkpt>
      <trkpt lat="43.45745" lon="6.82358">
        <ele>71.8</ele>
        <time>2021-03-19T10:04:16Z</time>
      </trkpt>
      <trkpt lat="43.45744" lon="6.82359">
        <ele>72</ele>
        <time>2021-03-19T10:04:17Z</time>
      </trkpt>
      <trkpt lat="43.45742" lon="6.82365">
        <ele>70.6</ele>
        <time>2021-03-19T10:04:20Z</time>
      </trkpt>
      <trkpt lat="43.45718" lon="6.82408">
        <ele>69</ele>
        <time>2021-03-19T10:04:41Z</time>
      </trkpt>
      <trkpt lat="43.45704" lon="6.82422">
        <ele>69</ele>
        <time>2021-03-19T10:04:50Z</time>
      </trkpt>
      <trkpt lat="43.45703" lon="6.82423">
        <ele>68.8</ele>
        <time>2021-03-19T10:04:51Z</time>
      </trkpt>
      <trkpt lat="43.45702" lon="6.82424">
        <ele>68.4</ele>
        <time>2021-03-19T10:04:52Z</time>
      </trkpt>
      <trkpt lat="43.45658" lon="6.82475">
        <ele>65.4</ele>
        <time>2021-03-19T10:05:28Z</time>
      </trkpt>
      <trkpt lat="43.45632" lon="6.82522">
        <ele>62.2</ele>
        <time>2021-03-19T10:05:59Z</time>
      </trkpt>
      <trkpt lat="43.45622" lon="6.82559">
        <ele>61.2</ele>
        <time>2021-03-19T10:06:19Z</time>
      </trkpt>
      <trkpt lat="43.45621" lon="6.82561">
        <ele>61</ele>
        <time>2021-03-19T10:06:20Z</time>
      </trkpt>
      <trkpt lat="43.45621" lon="6.82563">
        <ele>60.8</ele>
        <time>2021-03-19T10:06:21Z</time>
      </trkpt>
      <trkpt lat="43.4562" lon="6.82566">
        <ele>60.8</ele>
        <time>2021-03-19T10:06:23Z</time>
      </trkpt>
      <trkpt lat="43.45605" lon="6.82625">
        <ele>59.8</ele>
        <time>2021-03-19T10:06:52Z</time>
      </trkpt>
      <trkpt lat="43.45592" lon="6.8269">
        <ele>59.2</ele>
        <time>2021-03-19T10:07:29Z</time>
      </trkpt>
      <trkpt lat="43.45588" lon="6.82717">
        <ele>56</ele>
        <time>2021-03-19T10:07:43Z</time>
      </trkpt>
      <trkpt lat="43.45579" lon="6.82742">
        <ele>53</ele>
        <time>2021-03-19T10:07:57Z</time>
      </trkpt>
      <trkpt lat="43.45574" lon="6.82764">
        <ele>51.4</ele>
        <time>2021-03-19T10:08:07Z</time>
      </trkpt>
      <trkpt lat="43.45573" lon="6.82766">
        <ele>51.6</ele>
        <time>2021-03-19T10:08:08Z</time>
      </trkpt>
      <trkpt lat="43.45574" lon="6.82768">
        <ele>51.4</ele>
        <time>2021-03-19T10:08:09Z</time>
      </trkpt>
      <trkpt lat="43.45574" lon="6.8277">
        <ele>51.2</ele>
        <time>2021-03-19T10:08:10Z</time>
      </trkpt>
      <trkpt lat="43.45575" lon="6.82772">
        <ele>51</ele>
        <time>2021-03-19T10:08:11Z</time>
      </trkpt>
      <trkpt lat="43.45575" lon="6.82774">
        <ele>50.6</ele>
        <time>2021-03-19T10:08:12Z</time>
      </trkpt>
      <trkpt lat="43.45576" lon="6.82776">
        <ele>50.4</ele>
        <time>2021-03-19T10:08:13Z</time>
      </trkpt>
      <trkpt lat="43.45577" lon="6.82778">
        <ele>50.4</ele>
        <time>2021-03-19T10:08:14Z</time>
      </trkpt>
      <trkpt lat="43.45577" lon="6.8278">
        <ele>50.4</ele>
        <time>2021-03-19T10:08:15Z</time>
      </trkpt>
      <trkpt lat="43.45576" lon="6.82782">
        <ele>50.2</ele>
        <time>2021-03-19T10:08:16Z</time>
      </trkpt>
      <trkpt lat="43.45575" lon="6.82784">
        <ele>50.2</ele>
        <time>2021-03-19T10:08:17Z</time>
      </trkpt>
      <trkpt lat="43.45575" lon="6.82786">
        <ele>50</ele>
        <time>2021-03-19T10:08:18Z</time>
      </trkpt>
      <trkpt lat="43.45569" lon="6.82822">
        <ele>51</ele>
        <time>2021-03-19T10:08:43Z</time>
      </trkpt>
    </trkseg>
  </trk>
</gpx>